DEXSW EDDS-LOWG
Flight info
| Callsign | DEXSW |
|---|---|
| Flight time | 3h 48m |
| Altitude | 9000 |
| Route | ABTAL4H ABTAL DCT RIDAR Z98 WLD T702 BADIT DCT MATIG DCT ARASA DCT BAGSI DCT SITNI DCT SOVIL DCT TAGAS DCT FMD DCT GOTAR GOTAR3M |
| Aircraft | C182/L-SDGRY/S |
Departure
| Time | 2026-05-06 09:24 |
|---|---|
| Airport | Stuttgart Airport (EDDS) |
Arrival
| Time | 2026-05-06 13:12 |
|---|---|
| Airport | Graz Airport (LOWG) |
| Time | Latitude | Longitude | Altitude | Speed | Heading |
|---|---|---|---|---|---|
| 2026-05-06 09:01 | 48.69145 | 9.21160 | 1280 ft | 0 kts | 162° |
| 2026-05-06 09:10 | 48.69144 | 9.21160 | 1280 ft | 0 kts | 162° |
| 2026-05-06 09:11 | 48.69144 | 9.21161 | 1280 ft | 0 kts | 162° |
| 2026-05-06 09:14 | 48.69133 | 9.21166 | 1280 ft | 3 kts | 162° |
| 2026-05-06 09:14 | 48.69106 | 9.21179 | 1280 ft | 5 kts | 162° |
| 2026-05-06 09:14 | 48.69076 | 9.21194 | 1280 ft | 0 kts | 162° |
| 2026-05-06 09:15 | 48.69066 | 9.21194 | 1280 ft | 2 kts | 206° |
| 2026-05-06 09:15 | 48.69057 | 9.21168 | 1280 ft | 4 kts | 257° |
| 2026-05-06 09:15 | 48.69048 | 9.21116 | 1280 ft | 6 kts | 255° |
| 2026-05-06 09:15 | 48.69034 | 9.21043 | 1280 ft | 8 kts | 254° |
| 2026-05-06 09:16 | 48.69017 | 9.20950 | 1280 ft | 10 kts | 254° |
| 2026-05-06 09:16 | 48.68997 | 9.20843 | 1280 ft | 11 kts | 254° |
| 2026-05-06 09:16 | 48.68975 | 9.20728 | 1280 ft | 10 kts | 254° |
| 2026-05-06 09:16 | 48.68955 | 9.20617 | 1280 ft | 12 kts | 255° |
| 2026-05-06 09:17 | 48.68932 | 9.20496 | 1280 ft | 12 kts | 253° |
| 2026-05-06 09:17 | 48.68907 | 9.20368 | 1280 ft | 13 kts | 254° |
| 2026-05-06 09:17 | 48.68883 | 9.20235 | 1280 ft | 13 kts | 254° |
| 2026-05-06 09:17 | 48.68856 | 9.20099 | 1280 ft | 13 kts | 253° |
| 2026-05-06 09:18 | 48.68809 | 9.19998 | 1280 ft | 8 kts | 227° |
| 2026-05-06 09:18 | 48.68761 | 9.19956 | 1280 ft | 9 kts | 175° |
| 2026-05-06 09:18 | 48.68703 | 9.19979 | 1280 ft | 9 kts | 166° |
| 2026-05-06 09:18 | 48.68673 | 9.19993 | 1280 ft | 0 kts | 165° |
| 2026-05-06 09:20 | 48.68672 | 9.19993 | 1280 ft | 0 kts | 165° |
| 2026-05-06 09:22 | 48.68657 | 9.20000 | 1280 ft | 4 kts | 165° |
| 2026-05-06 09:22 | 48.68623 | 9.20014 | 1280 ft | 6 kts | 163° |
| 2026-05-06 09:22 | 48.68585 | 9.20053 | 1280 ft | 7 kts | 103° |
| 2026-05-06 09:22 | 48.68603 | 9.20155 | 1280 ft | 21 kts | 73° |
| 2026-05-06 09:23 | 48.68690 | 9.20636 | 1280 ft | 70 kts | 73° |
| 2026-05-06 09:23 | 48.68870 | 9.21388 | 1433 ft | 79 kts | 72° |
| 2026-05-06 09:23 | 48.69052 | 9.22219 | 1597 ft | 86 kts | 75° |
| 2026-05-06 09:23 | 48.69250 | 9.23075 | 1824 ft | 87 kts | 71° |
| 2026-05-06 09:24 | 48.69429 | 9.23992 | 2018 ft | 93 kts | 76° |
| 2026-05-06 09:24 | 48.69605 | 9.24929 | 2280 ft | 94 kts | 75° |
| 2026-05-06 09:24 | 48.69806 | 9.25884 | 2532 ft | 95 kts | 72° |
| 2026-05-06 09:24 | 48.70046 | 9.26804 | 2784 ft | 93 kts | 75° |
| 2026-05-06 09:25 | 48.70196 | 9.27824 | 2967 ft | 105 kts | 82° |
| 2026-05-06 09:25 | 48.70338 | 9.28916 | 3151 ft | 107 kts | 80° |
| 2026-05-06 09:25 | 48.70509 | 9.30038 | 3332 ft | 113 kts | 77° |
| 2026-05-06 09:25 | 48.70711 | 9.31205 | 3530 ft | 116 kts | 75° |
| 2026-05-06 09:26 | 48.70930 | 9.32393 | 3737 ft | 118 kts | 74° |
| 2026-05-06 09:26 | 48.71151 | 9.33580 | 3937 ft | 119 kts | 74° |
| 2026-05-06 09:26 | 48.71380 | 9.34798 | 4140 ft | 121 kts | 74° |
| 2026-05-06 09:26 | 48.71611 | 9.36025 | 4360 ft | 121 kts | 74° |
| 2026-05-06 09:27 | 48.71842 | 9.37244 | 4584 ft | 120 kts | 74° |
| 2026-05-06 09:27 | 48.72072 | 9.38462 | 4806 ft | 120 kts | 74° |
| 2026-05-06 09:27 | 48.72302 | 9.39671 | 5027 ft | 119 kts | 74° |
| 2026-05-06 09:27 | 48.72529 | 9.40869 | 5248 ft | 118 kts | 74° |
| 2026-05-06 09:28 | 48.72755 | 9.42061 | 5467 ft | 118 kts | 74° |
| 2026-05-06 09:28 | 48.72979 | 9.43250 | 5687 ft | 117 kts | 75° |
| 2026-05-06 09:28 | 48.73200 | 9.44424 | 5901 ft | 112 kts | 75° |
| 2026-05-06 09:28 | 48.73407 | 9.45525 | 6114 ft | 105 kts | 75° |
| 2026-05-06 09:29 | 48.73606 | 9.46567 | 6332 ft | 102 kts | 75° |
| 2026-05-06 09:29 | 48.73799 | 9.47579 | 6552 ft | 97 kts | 74° |
| 2026-05-06 09:29 | 48.73984 | 9.48538 | 6779 ft | 92 kts | 74° |
| 2026-05-06 09:29 | 48.74162 | 9.49454 | 6953 ft | 92 kts | 74° |
| 2026-05-06 09:30 | 48.74344 | 9.50402 | 7103 ft | 95 kts | 75° |
| 2026-05-06 09:30 | 48.74525 | 9.51367 | 7246 ft | 98 kts | 75° |
| 2026-05-06 09:30 | 48.74712 | 9.52376 | 7387 ft | 101 kts | 76° |
| 2026-05-06 09:30 | 48.74905 | 9.53430 | 7522 ft | 107 kts | 76° |
| 2026-05-06 09:31 | 48.75109 | 9.54541 | 7649 ft | 111 kts | 76° |
| 2026-05-06 09:31 | 48.75320 | 9.55692 | 7775 ft | 115 kts | 76° |
| 2026-05-06 09:31 | 48.75539 | 9.56878 | 7901 ft | 120 kts | 76° |
| 2026-05-06 09:31 | 48.75769 | 9.58114 | 8046 ft | 123 kts | 76° |
| 2026-05-06 09:32 | 48.76003 | 9.59373 | 8200 ft | 125 kts | 76° |
| 2026-05-06 09:32 | 48.76240 | 9.60641 | 8351 ft | 126 kts | 76° |
| 2026-05-06 09:32 | 48.76477 | 9.61912 | 8497 ft | 124 kts | 77° |
| 2026-05-06 09:32 | 48.76711 | 9.63163 | 8640 ft | 123 kts | 77° |
| 2026-05-06 09:33 | 48.76942 | 9.64401 | 8771 ft | 123 kts | 77° |
| 2026-05-06 09:33 | 48.77182 | 9.65698 | 8780 ft | 132 kts | 77° |
| 2026-05-06 09:33 | 48.77436 | 9.67070 | 8796 ft | 138 kts | 76° |
| 2026-05-06 09:33 | 48.77700 | 9.68498 | 8798 ft | 143 kts | 76° |
| 2026-05-06 09:34 | 48.77973 | 9.69969 | 8800 ft | 146 kts | 76° |
| 2026-05-06 09:34 | 48.78251 | 9.71469 | 8796 ft | 149 kts | 76° |
| 2026-05-06 09:34 | 48.78533 | 9.72989 | 8798 ft | 150 kts | 76° |
| 2026-05-06 09:34 | 48.78818 | 9.74525 | 8792 ft | 152 kts | 76° |
| 2026-05-06 09:35 | 48.79104 | 9.76067 | 8794 ft | 152 kts | 76° |
| 2026-05-06 09:35 | 48.79390 | 9.77610 | 8794 ft | 152 kts | 76° |
| 2026-05-06 09:35 | 48.79675 | 9.79153 | 8795 ft | 152 kts | 76° |
| 2026-05-06 09:35 | 48.79959 | 9.80689 | 8794 ft | 151 kts | 76° |
| 2026-05-06 09:36 | 48.80242 | 9.82222 | 8794 ft | 151 kts | 76° |
| 2026-05-06 09:36 | 48.80525 | 9.83752 | 8794 ft | 151 kts | 76° |
| 2026-05-06 09:36 | 48.80806 | 9.85279 | 8793 ft | 150 kts | 76° |
| 2026-05-06 09:36 | 48.81083 | 9.86780 | 8793 ft | 149 kts | 76° |
| 2026-05-06 09:37 | 48.81365 | 9.88315 | 8794 ft | 149 kts | 76° |
| 2026-05-06 09:37 | 48.81640 | 9.89810 | 8794 ft | 149 kts | 76° |
| 2026-05-06 09:37 | 48.81919 | 9.91327 | 8797 ft | 151 kts | 76° |
| 2026-05-06 09:37 | 48.82202 | 9.92868 | 8801 ft | 152 kts | 76° |
| 2026-05-06 09:38 | 48.82487 | 9.94425 | 8803 ft | 154 kts | 76° |
| 2026-05-06 09:38 | 48.82774 | 9.95988 | 8800 ft | 153 kts | 76° |
| 2026-05-06 09:38 | 48.83058 | 9.97541 | 8799 ft | 152 kts | 76° |
| 2026-05-06 09:38 | 48.83342 | 9.99090 | 8798 ft | 152 kts | 76° |
| 2026-05-06 09:39 | 48.83625 | 10.00639 | 8799 ft | 153 kts | 77° |
| 2026-05-06 09:39 | 48.83908 | 10.02192 | 8800 ft | 153 kts | 77° |
| 2026-05-06 09:39 | 48.84100 | 10.03245 | 8800 ft | 155 kts | 77° |
| 2026-05-06 09:39 | 48.84391 | 10.04844 | 8801 ft | 159 kts | 77° |
| 2026-05-06 09:40 | 48.84684 | 10.06458 | 8800 ft | 162 kts | 76° |
| 2026-05-06 09:40 | 48.84988 | 10.08130 | 8796 ft | 162 kts | 77° |
| 2026-05-06 09:40 | 48.85214 | 10.11386 | 8784 ft | 153 kts | 111° |
| 2026-05-06 09:41 | 48.84703 | 10.12759 | 8793 ft | 148 kts | 127° |
| 2026-05-06 09:41 | 48.84151 | 10.14078 | 8796 ft | 148 kts | 124° |
| 2026-05-06 09:41 | 48.83642 | 10.15405 | 8797 ft | 147 kts | 123° |
| 2026-05-06 09:41 | 48.83139 | 10.16759 | 8800 ft | 147 kts | 122° |
| 2026-05-06 09:42 | 48.82641 | 10.18107 | 8802 ft | 146 kts | 122° |
| 2026-05-06 09:42 | 48.82142 | 10.19451 | 8805 ft | 146 kts | 122° |
| 2026-05-06 09:42 | 48.81640 | 10.20794 | 8807 ft | 146 kts | 123° |
| 2026-05-06 09:42 | 48.81136 | 10.22132 | 8807 ft | 146 kts | 123° |
| 2026-05-06 09:43 | 48.80630 | 10.23470 | 8809 ft | 146 kts | 123° |
| 2026-05-06 09:43 | 48.80123 | 10.24807 | 8809 ft | 146 kts | 123° |
| 2026-05-06 09:43 | 48.79618 | 10.26136 | 8809 ft | 146 kts | 123° |
| 2026-05-06 09:43 | 48.79110 | 10.27466 | 8809 ft | 146 kts | 123° |
| 2026-05-06 09:44 | 48.78600 | 10.28798 | 8810 ft | 146 kts | 123° |
| 2026-05-06 09:44 | 48.78095 | 10.30127 | 8810 ft | 146 kts | 123° |
| 2026-05-06 09:44 | 48.77589 | 10.31460 | 8810 ft | 146 kts | 123° |
| 2026-05-06 09:44 | 48.77074 | 10.32816 | 8817 ft | 151 kts | 123° |
| 2026-05-06 09:45 | 48.76548 | 10.34196 | 8823 ft | 155 kts | 123° |
| 2026-05-06 09:45 | 48.76005 | 10.35622 | 8822 ft | 157 kts | 123° |
| 2026-05-06 09:45 | 48.75461 | 10.37051 | 8817 ft | 155 kts | 123° |
| 2026-05-06 09:45 | 48.74922 | 10.38466 | 8812 ft | 153 kts | 123° |
| 2026-05-06 09:46 | 48.74390 | 10.39863 | 8810 ft | 152 kts | 123° |
| 2026-05-06 09:46 | 48.73865 | 10.41241 | 8810 ft | 150 kts | 123° |
| 2026-05-06 09:46 | 48.73342 | 10.42604 | 8810 ft | 149 kts | 123° |
| 2026-05-06 09:46 | 48.72825 | 10.43952 | 8810 ft | 148 kts | 123° |
| 2026-05-06 09:47 | 48.72313 | 10.45294 | 8810 ft | 147 kts | 123° |
| 2026-05-06 09:47 | 48.71802 | 10.46629 | 8812 ft | 146 kts | 123° |
| 2026-05-06 09:47 | 48.71294 | 10.47960 | 8812 ft | 146 kts | 123° |
| 2026-05-06 09:47 | 48.70786 | 10.49288 | 8813 ft | 146 kts | 123° |
| 2026-05-06 09:48 | 48.70278 | 10.50612 | 8814 ft | 145 kts | 123° |
| 2026-05-06 09:48 | 48.69770 | 10.51936 | 8815 ft | 145 kts | 123° |
| 2026-05-06 09:48 | 48.69263 | 10.53256 | 8819 ft | 145 kts | 123° |
| 2026-05-06 09:48 | 48.68755 | 10.54575 | 8821 ft | 145 kts | 123° |
| 2026-05-06 09:49 | 48.68248 | 10.55893 | 8821 ft | 145 kts | 123° |
| 2026-05-06 09:49 | 48.67741 | 10.57214 | 8823 ft | 145 kts | 123° |
| 2026-05-06 09:49 | 48.67235 | 10.58534 | 8822 ft | 145 kts | 123° |
| 2026-05-06 09:49 | 48.66727 | 10.59857 | 8823 ft | 145 kts | 123° |
| 2026-05-06 09:50 | 48.66219 | 10.61178 | 8823 ft | 145 kts | 123° |
| 2026-05-06 09:50 | 48.65718 | 10.62480 | 8825 ft | 145 kts | 123° |
| 2026-05-06 09:50 | 48.65202 | 10.63813 | 8825 ft | 145 kts | 123° |
| 2026-05-06 09:50 | 48.64693 | 10.65129 | 8825 ft | 145 kts | 123° |
| 2026-05-06 09:51 | 48.64192 | 10.66430 | 8825 ft | 145 kts | 123° |
| 2026-05-06 09:51 | 48.63685 | 10.67750 | 8825 ft | 145 kts | 123° |
| 2026-05-06 09:51 | 48.63177 | 10.69069 | 8825 ft | 145 kts | 123° |
| 2026-05-06 09:51 | 48.62669 | 10.70386 | 8825 ft | 145 kts | 123° |
| 2026-05-06 09:52 | 48.62161 | 10.71702 | 8825 ft | 145 kts | 123° |
| 2026-05-06 09:52 | 48.61652 | 10.73019 | 8826 ft | 145 kts | 123° |
| 2026-05-06 09:52 | 48.61144 | 10.74333 | 8825 ft | 145 kts | 123° |
| 2026-05-06 09:52 | 48.60635 | 10.75648 | 8825 ft | 145 kts | 123° |
| 2026-05-06 09:53 | 48.60126 | 10.76963 | 8825 ft | 145 kts | 123° |
| 2026-05-06 09:53 | 48.59618 | 10.78276 | 8825 ft | 145 kts | 123° |
| 2026-05-06 09:53 | 48.59108 | 10.79587 | 8825 ft | 145 kts | 123° |
| 2026-05-06 09:53 | 48.58753 | 10.81006 | 8826 ft | 147 kts | 98° |
| 2026-05-06 09:54 | 48.58751 | 10.82553 | 8842 ft | 147 kts | 92° |
| 2026-05-06 09:54 | 48.58740 | 10.84099 | 8839 ft | 148 kts | 94° |
| 2026-05-06 09:54 | 48.58708 | 10.85651 | 8834 ft | 148 kts | 95° |
| 2026-05-06 09:54 | 48.58665 | 10.87205 | 8830 ft | 148 kts | 95° |
| 2026-05-06 09:55 | 48.58621 | 10.88761 | 8828 ft | 148 kts | 95° |
| 2026-05-06 09:55 | 48.58577 | 10.90319 | 8827 ft | 148 kts | 95° |
| 2026-05-06 09:55 | 48.58532 | 10.91877 | 8825 ft | 148 kts | 95° |
| 2026-05-06 09:55 | 48.58487 | 10.93432 | 8824 ft | 148 kts | 95° |
| 2026-05-06 09:56 | 48.58443 | 10.94989 | 8824 ft | 148 kts | 95° |
| 2026-05-06 09:56 | 48.58399 | 10.96545 | 8824 ft | 148 kts | 95° |
| 2026-05-06 09:56 | 48.58356 | 10.98100 | 8825 ft | 148 kts | 95° |
| 2026-05-06 09:56 | 48.58312 | 10.99654 | 8824 ft | 148 kts | 95° |
| 2026-05-06 09:57 | 48.58269 | 11.01211 | 8825 ft | 148 kts | 95° |
| 2026-05-06 09:57 | 48.58226 | 11.02765 | 8825 ft | 148 kts | 95° |
| 2026-05-06 09:57 | 48.58184 | 11.04319 | 8825 ft | 148 kts | 95° |
| 2026-05-06 09:57 | 48.58141 | 11.05872 | 8826 ft | 148 kts | 95° |
| 2026-05-06 09:58 | 48.58097 | 11.07424 | 8825 ft | 148 kts | 95° |
| 2026-05-06 09:58 | 48.58053 | 11.08979 | 8825 ft | 148 kts | 95° |
| 2026-05-06 09:58 | 48.58008 | 11.10533 | 8825 ft | 148 kts | 95° |
| 2026-05-06 09:58 | 48.57962 | 11.12085 | 8825 ft | 148 kts | 95° |
| 2026-05-06 09:59 | 48.57824 | 11.13613 | 8820 ft | 146 kts | 110° |
| 2026-05-06 09:59 | 48.57474 | 11.15049 | 8826 ft | 146 kts | 113° |
| 2026-05-06 09:59 | 48.57123 | 11.16485 | 8826 ft | 146 kts | 112° |
| 2026-05-06 09:59 | 48.56778 | 11.17925 | 8826 ft | 146 kts | 112° |
| 2026-05-06 10:00 | 48.56437 | 11.19365 | 8826 ft | 146 kts | 112° |
| 2026-05-06 10:00 | 48.56098 | 11.20807 | 8825 ft | 146 kts | 112° |
| 2026-05-06 10:00 | 48.55760 | 11.22250 | 8825 ft | 146 kts | 112° |
| 2026-05-06 10:00 | 48.55423 | 11.23689 | 8825 ft | 146 kts | 112° |
| 2026-05-06 10:01 | 48.55085 | 11.25131 | 8825 ft | 146 kts | 112° |
| 2026-05-06 10:01 | 48.54747 | 11.26570 | 8825 ft | 145 kts | 112° |
| 2026-05-06 10:01 | 48.54409 | 11.28008 | 8826 ft | 145 kts | 112° |
| 2026-05-06 10:01 | 48.54070 | 11.29448 | 8825 ft | 145 kts | 112° |
| 2026-05-06 10:02 | 48.53732 | 11.30886 | 8825 ft | 145 kts | 112° |
| 2026-05-06 10:02 | 48.53394 | 11.32321 | 8825 ft | 145 kts | 112° |
| 2026-05-06 10:02 | 48.53055 | 11.33758 | 8826 ft | 145 kts | 112° |
| 2026-05-06 10:02 | 48.52717 | 11.35192 | 8825 ft | 145 kts | 112° |
| 2026-05-06 10:03 | 48.52379 | 11.36625 | 8825 ft | 145 kts | 112° |
| 2026-05-06 10:03 | 48.52041 | 11.38058 | 8825 ft | 145 kts | 112° |
| 2026-05-06 10:03 | 48.51702 | 11.39490 | 8825 ft | 145 kts | 112° |
| 2026-05-06 10:03 | 48.51364 | 11.40920 | 8825 ft | 145 kts | 112° |
| 2026-05-06 10:04 | 48.51027 | 11.42346 | 8825 ft | 145 kts | 112° |
| 2026-05-06 10:04 | 48.50688 | 11.43775 | 8825 ft | 145 kts | 112° |
| 2026-05-06 10:04 | 48.50350 | 11.45202 | 8825 ft | 144 kts | 112° |
| 2026-05-06 10:04 | 48.50013 | 11.46626 | 8825 ft | 144 kts | 112° |
| 2026-05-06 10:05 | 48.49674 | 11.48053 | 8825 ft | 144 kts | 112° |
| 2026-05-06 10:05 | 48.49335 | 11.49480 | 8826 ft | 147 kts | 112° |
| 2026-05-06 10:05 | 48.48986 | 11.50946 | 8826 ft | 150 kts | 112° |
| 2026-05-06 10:05 | 48.48633 | 11.52430 | 8826 ft | 151 kts | 112° |
| 2026-05-06 10:06 | 48.48277 | 11.53926 | 8825 ft | 152 kts | 112° |
| 2026-05-06 10:06 | 48.47921 | 11.55426 | 8823 ft | 151 kts | 112° |
| 2026-05-06 10:06 | 48.47567 | 11.56913 | 8822 ft | 153 kts | 112° |
| 2026-05-06 10:06 | 48.47208 | 11.58415 | 8826 ft | 156 kts | 112° |
| 2026-05-06 10:07 | 48.46839 | 11.59960 | 8827 ft | 158 kts | 112° |
| 2026-05-06 10:07 | 48.46468 | 11.61516 | 8821 ft | 156 kts | 112° |
| 2026-05-06 10:07 | 48.46103 | 11.63042 | 8818 ft | 156 kts | 112° |
| 2026-05-06 10:07 | 48.45732 | 11.64586 | 8825 ft | 158 kts | 112° |
| 2026-05-06 10:08 | 48.45357 | 11.66147 | 8827 ft | 159 kts | 112° |
| 2026-05-06 10:08 | 48.44980 | 11.67713 | 8824 ft | 156 kts | 112° |
| 2026-05-06 10:08 | 48.44616 | 11.69234 | 8820 ft | 153 kts | 112° |
| 2026-05-06 10:08 | 48.44255 | 11.70737 | 8819 ft | 152 kts | 112° |
| 2026-05-06 10:09 | 48.43893 | 11.72236 | 8820 ft | 151 kts | 112° |
| 2026-05-06 10:09 | 48.43536 | 11.73721 | 8819 ft | 149 kts | 112° |
| 2026-05-06 10:09 | 48.43182 | 11.75188 | 8821 ft | 150 kts | 112° |
| 2026-05-06 10:09 | 48.42823 | 11.76672 | 8825 ft | 151 kts | 112° |
| 2026-05-06 10:10 | 48.42467 | 11.78145 | 8827 ft | 152 kts | 112° |
| 2026-05-06 10:10 | 48.42104 | 11.79644 | 8825 ft | 151 kts | 111° |
| 2026-05-06 10:10 | 48.41749 | 11.81114 | 8822 ft | 148 kts | 112° |
| 2026-05-06 10:10 | 48.41399 | 11.82563 | 8819 ft | 146 kts | 112° |
| 2026-05-06 10:11 | 48.41052 | 11.83995 | 8818 ft | 145 kts | 112° |
| 2026-05-06 10:11 | 48.40708 | 11.85416 | 8821 ft | 144 kts | 112° |
| 2026-05-06 10:11 | 48.40362 | 11.86844 | 8822 ft | 143 kts | 112° |
| 2026-05-06 10:11 | 48.40022 | 11.88247 | 8823 ft | 143 kts | 112° |
| 2026-05-06 10:12 | 48.39682 | 11.89647 | 8824 ft | 142 kts | 112° |
| 2026-05-06 10:12 | 48.39347 | 11.91026 | 8825 ft | 142 kts | 112° |
| 2026-05-06 10:12 | 48.38991 | 11.92488 | 8824 ft | 142 kts | 112° |
| 2026-05-06 10:12 | 48.38664 | 11.93835 | 8824 ft | 142 kts | 112° |
| 2026-05-06 10:13 | 48.38325 | 11.95228 | 8826 ft | 142 kts | 112° |
| 2026-05-06 10:13 | 48.37986 | 11.96619 | 8826 ft | 142 kts | 112° |
| 2026-05-06 10:13 | 48.37647 | 11.98011 | 8826 ft | 142 kts | 112° |
| 2026-05-06 10:13 | 48.37308 | 11.99401 | 8825 ft | 142 kts | 112° |
| 2026-05-06 10:14 | 48.36968 | 12.00792 | 8825 ft | 142 kts | 112° |
| 2026-05-06 10:14 | 48.36629 | 12.02182 | 8825 ft | 142 kts | 112° |
| 2026-05-06 10:14 | 48.36289 | 12.03573 | 8824 ft | 142 kts | 112° |
| 2026-05-06 10:14 | 48.35949 | 12.04963 | 8824 ft | 142 kts | 112° |
| 2026-05-06 10:15 | 48.35609 | 12.06353 | 8824 ft | 142 kts | 112° |
| 2026-05-06 10:15 | 48.35269 | 12.07743 | 8824 ft | 142 kts | 112° |
| 2026-05-06 10:15 | 48.34929 | 12.09134 | 8824 ft | 142 kts | 112° |
| 2026-05-06 10:15 | 48.34588 | 12.10524 | 8823 ft | 142 kts | 112° |
| 2026-05-06 10:16 | 48.34247 | 12.11913 | 8823 ft | 142 kts | 112° |
| 2026-05-06 10:16 | 48.33907 | 12.13302 | 8823 ft | 142 kts | 112° |
| 2026-05-06 10:16 | 48.33565 | 12.14691 | 8823 ft | 142 kts | 112° |
| 2026-05-06 10:16 | 48.33224 | 12.16079 | 8823 ft | 142 kts | 112° |
| 2026-05-06 10:17 | 48.32883 | 12.17469 | 8823 ft | 142 kts | 112° |
| 2026-05-06 10:17 | 48.32541 | 12.18858 | 8823 ft | 142 kts | 112° |
| 2026-05-06 10:17 | 48.32199 | 12.20247 | 8822 ft | 142 kts | 112° |
| 2026-05-06 10:17 | 48.31857 | 12.21635 | 8823 ft | 142 kts | 112° |
| 2026-05-06 10:18 | 48.31515 | 12.23024 | 8822 ft | 142 kts | 112° |
| 2026-05-06 10:18 | 48.31173 | 12.24414 | 8821 ft | 142 kts | 112° |
| 2026-05-06 10:18 | 48.30945 | 12.25334 | 8821 ft | 142 kts | 112° |
| 2026-05-06 10:18 | 48.30602 | 12.26724 | 8821 ft | 142 kts | 112° |
| 2026-05-06 10:19 | 48.30259 | 12.28113 | 8821 ft | 142 kts | 112° |
| 2026-05-06 10:19 | 48.29916 | 12.29502 | 8821 ft | 142 kts | 112° |
| 2026-05-06 10:19 | 48.29572 | 12.30894 | 8821 ft | 142 kts | 112° |
| 2026-05-06 10:19 | 48.29228 | 12.32282 | 8821 ft | 142 kts | 112° |
| 2026-05-06 10:20 | 48.28884 | 12.33673 | 8820 ft | 142 kts | 112° |
| 2026-05-06 10:20 | 48.28540 | 12.35061 | 8819 ft | 142 kts | 112° |
| 2026-05-06 10:20 | 48.28195 | 12.36451 | 8819 ft | 142 kts | 112° |
| 2026-05-06 10:20 | 48.27851 | 12.37841 | 8819 ft | 142 kts | 112° |
| 2026-05-06 10:21 | 48.27505 | 12.39231 | 8819 ft | 142 kts | 112° |
| 2026-05-06 10:21 | 48.27160 | 12.40622 | 8818 ft | 142 kts | 112° |
| 2026-05-06 10:21 | 48.26814 | 12.42012 | 8818 ft | 142 kts | 112° |
| 2026-05-06 10:21 | 48.26468 | 12.43405 | 8818 ft | 142 kts | 112° |
| 2026-05-06 10:22 | 48.26122 | 12.44796 | 8817 ft | 142 kts | 112° |
| 2026-05-06 10:22 | 48.25775 | 12.46190 | 8817 ft | 142 kts | 112° |
| 2026-05-06 10:22 | 48.25428 | 12.47582 | 8817 ft | 142 kts | 112° |
| 2026-05-06 10:22 | 48.25081 | 12.48974 | 8816 ft | 143 kts | 112° |
| 2026-05-06 10:23 | 48.24733 | 12.50368 | 8815 ft | 143 kts | 112° |
| 2026-05-06 10:23 | 48.24386 | 12.51760 | 8815 ft | 143 kts | 112° |
| 2026-05-06 10:23 | 48.24037 | 12.53156 | 8815 ft | 143 kts | 112° |
| 2026-05-06 10:23 | 48.23689 | 12.54550 | 8814 ft | 143 kts | 112° |
| 2026-05-06 10:24 | 48.23340 | 12.55944 | 8814 ft | 143 kts | 112° |
| 2026-05-06 10:24 | 48.22990 | 12.57341 | 8813 ft | 143 kts | 112° |
| 2026-05-06 10:24 | 48.22641 | 12.58736 | 8814 ft | 143 kts | 112° |
| 2026-05-06 10:24 | 48.22292 | 12.60133 | 8813 ft | 143 kts | 112° |
| 2026-05-06 10:25 | 48.21942 | 12.61531 | 8813 ft | 143 kts | 112° |
| 2026-05-06 10:25 | 48.21592 | 12.62930 | 8812 ft | 143 kts | 112° |
| 2026-05-06 10:25 | 48.21242 | 12.64329 | 8812 ft | 143 kts | 112° |
| 2026-05-06 10:25 | 48.20891 | 12.65728 | 8812 ft | 143 kts | 113° |
| 2026-05-06 10:26 | 48.20539 | 12.67129 | 8810 ft | 143 kts | 113° |
| 2026-05-06 10:26 | 48.20187 | 12.68532 | 8811 ft | 144 kts | 113° |
| 2026-05-06 10:26 | 48.19836 | 12.69928 | 8811 ft | 144 kts | 113° |
| 2026-05-06 10:26 | 48.19483 | 12.71328 | 8811 ft | 143 kts | 113° |
| 2026-05-06 10:27 | 48.19131 | 12.72727 | 8810 ft | 144 kts | 113° |
| 2026-05-06 10:27 | 48.18779 | 12.74126 | 8809 ft | 144 kts | 113° |
| 2026-05-06 10:27 | 48.18426 | 12.75525 | 8808 ft | 144 kts | 113° |
| 2026-05-06 10:27 | 48.18073 | 12.76925 | 8808 ft | 144 kts | 113° |
| 2026-05-06 10:28 | 48.17720 | 12.78324 | 8808 ft | 144 kts | 113° |
| 2026-05-06 10:28 | 48.17367 | 12.79724 | 8808 ft | 144 kts | 113° |
| 2026-05-06 10:28 | 48.17013 | 12.81124 | 8808 ft | 144 kts | 113° |
| 2026-05-06 10:28 | 48.16659 | 12.82524 | 8807 ft | 144 kts | 113° |
| 2026-05-06 10:29 | 48.16336 | 12.83946 | 8806 ft | 145 kts | 106° |
| 2026-05-06 10:29 | 48.16136 | 12.85420 | 8815 ft | 144 kts | 104° |
| 2026-05-06 10:29 | 48.15928 | 12.86896 | 8815 ft | 145 kts | 105° |
| 2026-05-06 10:29 | 48.15714 | 12.88368 | 8814 ft | 145 kts | 105° |
| 2026-05-06 10:30 | 48.15497 | 12.89822 | 8817 ft | 145 kts | 107° |
| 2026-05-06 10:30 | 48.15284 | 12.91304 | 8807 ft | 147 kts | 104° |
| 2026-05-06 10:30 | 48.15079 | 12.92795 | 8807 ft | 146 kts | 106° |
| 2026-05-06 10:30 | 48.14821 | 12.94253 | 8811 ft | 145 kts | 106° |
| 2026-05-06 10:31 | 48.14607 | 12.95737 | 8810 ft | 145 kts | 105° |
| 2026-05-06 10:31 | 48.14404 | 12.97214 | 8808 ft | 145 kts | 105° |
| 2026-05-06 10:31 | 48.14185 | 12.98685 | 8810 ft | 145 kts | 106° |
| 2026-05-06 10:31 | 48.13953 | 13.00143 | 8829 ft | 143 kts | 105° |
| 2026-05-06 10:32 | 48.13725 | 13.01613 | 8814 ft | 145 kts | 106° |
| 2026-05-06 10:32 | 48.13506 | 13.03098 | 8808 ft | 146 kts | 106° |
| 2026-05-06 10:32 | 48.13287 | 13.04585 | 8805 ft | 146 kts | 106° |
| 2026-05-06 10:32 | 48.13073 | 13.06068 | 8807 ft | 145 kts | 104° |
| 2026-05-06 10:33 | 48.12870 | 13.07549 | 8797 ft | 146 kts | 104° |
| 2026-05-06 10:33 | 48.12648 | 13.09027 | 8802 ft | 145 kts | 105° |
| 2026-05-06 10:33 | 48.12426 | 13.10501 | 8795 ft | 146 kts | 106° |
| 2026-05-06 10:33 | 48.12197 | 13.11978 | 8810 ft | 145 kts | 106° |
| 2026-05-06 10:34 | 48.11993 | 13.13462 | 8811 ft | 145 kts | 105° |
| 2026-05-06 10:34 | 48.11782 | 13.14939 | 8811 ft | 145 kts | 105° |
| 2026-05-06 10:34 | 48.11564 | 13.16416 | 8810 ft | 145 kts | 106° |
| 2026-05-06 10:34 | 48.11342 | 13.17891 | 8810 ft | 145 kts | 106° |
| 2026-05-06 10:35 | 48.11121 | 13.19365 | 8809 ft | 145 kts | 106° |
| 2026-05-06 10:35 | 48.10898 | 13.20841 | 8809 ft | 145 kts | 106° |
| 2026-05-06 10:35 | 48.10677 | 13.22313 | 8809 ft | 145 kts | 106° |
| 2026-05-06 10:35 | 48.10455 | 13.23788 | 8809 ft | 145 kts | 106° |
| 2026-05-06 10:36 | 48.10234 | 13.25261 | 8809 ft | 145 kts | 106° |
| 2026-05-06 10:36 | 48.10013 | 13.26734 | 8809 ft | 145 kts | 106° |
| 2026-05-06 10:36 | 48.09791 | 13.28207 | 8809 ft | 145 kts | 106° |
| 2026-05-06 10:36 | 48.09569 | 13.29681 | 8810 ft | 145 kts | 106° |
| 2026-05-06 10:37 | 48.09348 | 13.31154 | 8810 ft | 145 kts | 106° |
| 2026-05-06 10:37 | 48.09126 | 13.32623 | 8811 ft | 145 kts | 106° |
| 2026-05-06 10:37 | 48.08904 | 13.34097 | 8811 ft | 145 kts | 106° |
| 2026-05-06 10:37 | 48.08682 | 13.35565 | 8812 ft | 145 kts | 106° |
| 2026-05-06 10:38 | 48.08460 | 13.37035 | 8811 ft | 145 kts | 106° |
| 2026-05-06 10:38 | 48.08238 | 13.38503 | 8812 ft | 145 kts | 106° |
| 2026-05-06 10:38 | 48.08016 | 13.39968 | 8812 ft | 145 kts | 106° |
| 2026-05-06 10:38 | 48.07794 | 13.41434 | 8812 ft | 144 kts | 106° |
| 2026-05-06 10:39 | 48.07575 | 13.42879 | 8813 ft | 144 kts | 106° |
| 2026-05-06 10:39 | 48.07352 | 13.44343 | 8813 ft | 144 kts | 106° |
| 2026-05-06 10:39 | 48.07130 | 13.45805 | 8814 ft | 144 kts | 106° |
| 2026-05-06 10:39 | 48.06907 | 13.47267 | 8814 ft | 144 kts | 106° |
| 2026-05-06 10:40 | 48.06685 | 13.48727 | 8815 ft | 144 kts | 106° |
| 2026-05-06 10:40 | 48.06462 | 13.50189 | 8815 ft | 144 kts | 107° |
| 2026-05-06 10:40 | 48.06239 | 13.51649 | 8816 ft | 144 kts | 106° |
| 2026-05-06 10:40 | 48.06017 | 13.53107 | 8817 ft | 144 kts | 106° |
| 2026-05-06 10:41 | 48.05829 | 13.54578 | 8814 ft | 145 kts | 97° |
| 2026-05-06 10:41 | 48.05821 | 13.56094 | 8818 ft | 146 kts | 94° |
| 2026-05-06 10:41 | 48.05816 | 13.57630 | 8819 ft | 146 kts | 94° |
| 2026-05-06 10:41 | 48.05805 | 13.59146 | 8819 ft | 146 kts | 94° |
| 2026-05-06 10:42 | 48.05792 | 13.60660 | 8819 ft | 146 kts | 95° |
| 2026-05-06 10:42 | 48.05777 | 13.62172 | 8820 ft | 146 kts | 95° |
| 2026-05-06 10:42 | 48.05761 | 13.63684 | 8820 ft | 146 kts | 95° |
| 2026-05-06 10:42 | 48.05745 | 13.65195 | 8820 ft | 145 kts | 95° |
| 2026-05-06 10:43 | 48.05729 | 13.66707 | 8820 ft | 145 kts | 95° |
| 2026-05-06 10:43 | 48.05712 | 13.68218 | 8820 ft | 145 kts | 95° |
| 2026-05-06 10:43 | 48.05695 | 13.69725 | 8821 ft | 145 kts | 95° |
| 2026-05-06 10:44 | 48.05660 | 13.72741 | 8821 ft | 145 kts | 95° |
| 2026-05-06 10:44 | 48.05642 | 13.74245 | 8821 ft | 145 kts | 95° |
| 2026-05-06 10:44 | 48.05624 | 13.75751 | 8821 ft | 145 kts | 95° |
| 2026-05-06 10:44 | 48.05607 | 13.77255 | 8822 ft | 145 kts | 95° |
| 2026-05-06 10:45 | 48.05589 | 13.78758 | 8822 ft | 145 kts | 95° |
| 2026-05-06 10:45 | 48.05571 | 13.80260 | 8823 ft | 144 kts | 95° |
| 2026-05-06 10:45 | 48.05553 | 13.81761 | 8822 ft | 145 kts | 95° |
| 2026-05-06 10:45 | 48.05536 | 13.83261 | 8824 ft | 144 kts | 95° |
| 2026-05-06 10:46 | 48.05517 | 13.84762 | 8824 ft | 144 kts | 95° |
| 2026-05-06 10:46 | 48.05498 | 13.86260 | 8825 ft | 144 kts | 95° |
| 2026-05-06 10:46 | 48.05479 | 13.87760 | 8823 ft | 144 kts | 95° |
| 2026-05-06 10:46 | 48.05460 | 13.89261 | 8824 ft | 144 kts | 95° |
| 2026-05-06 10:47 | 48.05440 | 13.90763 | 8825 ft | 144 kts | 95° |
| 2026-05-06 10:47 | 48.05420 | 13.92261 | 8825 ft | 144 kts | 95° |
| 2026-05-06 10:47 | 48.05400 | 13.93764 | 8825 ft | 145 kts | 95° |
| 2026-05-06 10:47 | 48.05380 | 13.95264 | 8824 ft | 145 kts | 95° |
| 2026-05-06 10:48 | 48.05360 | 13.96768 | 8825 ft | 145 kts | 95° |
| 2026-05-06 10:48 | 48.05340 | 13.98271 | 8824 ft | 145 kts | 95° |
| 2026-05-06 10:48 | 48.05320 | 13.99752 | 8825 ft | 144 kts | 95° |
| 2026-05-06 10:48 | 48.05300 | 14.01253 | 8825 ft | 144 kts | 95° |
| 2026-05-06 10:49 | 48.05280 | 14.02750 | 8825 ft | 144 kts | 95° |
| 2026-05-06 10:49 | 48.05258 | 14.04250 | 8825 ft | 144 kts | 95° |
| 2026-05-06 10:49 | 48.05237 | 14.05749 | 8825 ft | 144 kts | 95° |
| 2026-05-06 10:49 | 48.05216 | 14.07249 | 8826 ft | 144 kts | 95° |
| 2026-05-06 10:50 | 48.05194 | 14.08755 | 8825 ft | 145 kts | 95° |
| 2026-05-06 10:50 | 48.05171 | 14.10261 | 8825 ft | 145 kts | 95° |
| 2026-05-06 10:50 | 48.05154 | 14.11766 | 8826 ft | 145 kts | 95° |
| 2026-05-06 10:50 | 48.05134 | 14.13269 | 8826 ft | 145 kts | 95° |
| 2026-05-06 10:51 | 48.05111 | 14.14774 | 8826 ft | 145 kts | 95° |
| 2026-05-06 10:51 | 48.05086 | 14.16274 | 8825 ft | 144 kts | 96° |
| 2026-05-06 10:51 | 48.05061 | 14.17774 | 8825 ft | 144 kts | 95° |
| 2026-05-06 10:51 | 48.05036 | 14.19273 | 8825 ft | 144 kts | 95° |
| 2026-05-06 10:52 | 48.05048 | 14.20777 | 8823 ft | 146 kts | 88° |
| 2026-05-06 10:52 | 48.05192 | 14.22279 | 8825 ft | 146 kts | 86° |
| 2026-05-06 10:52 | 48.05330 | 14.23785 | 8825 ft | 146 kts | 86° |
| 2026-05-06 10:52 | 48.05462 | 14.25288 | 8826 ft | 146 kts | 87° |
| 2026-05-06 10:53 | 48.05594 | 14.26795 | 8827 ft | 146 kts | 87° |
| 2026-05-06 10:53 | 48.05725 | 14.28305 | 8827 ft | 146 kts | 87° |
| 2026-05-06 10:53 | 48.05796 | 14.29816 | 8825 ft | 145 kts | 95° |
| 2026-05-06 10:53 | 48.05776 | 14.31322 | 8826 ft | 145 kts | 95° |
| 2026-05-06 10:54 | 48.05764 | 14.32834 | 8827 ft | 146 kts | 95° |
| 2026-05-06 10:54 | 48.05760 | 14.34345 | 8828 ft | 145 kts | 95° |
| 2026-05-06 10:54 | 48.05754 | 14.35857 | 8826 ft | 146 kts | 94° |
| 2026-05-06 10:54 | 48.05747 | 14.37369 | 8828 ft | 145 kts | 95° |
| 2026-05-06 10:55 | 48.05739 | 14.38879 | 8827 ft | 145 kts | 95° |
| 2026-05-06 10:55 | 48.05730 | 14.40387 | 8830 ft | 145 kts | 95° |
| 2026-05-06 10:55 | 48.05720 | 14.41896 | 8831 ft | 145 kts | 95° |
| 2026-05-06 10:55 | 48.05709 | 14.43408 | 8832 ft | 146 kts | 95° |
| 2026-05-06 10:56 | 48.05698 | 14.44921 | 8832 ft | 146 kts | 95° |
| 2026-05-06 10:56 | 48.05689 | 14.46437 | 8832 ft | 146 kts | 95° |
| 2026-05-06 10:56 | 48.05681 | 14.47954 | 8833 ft | 146 kts | 95° |
| 2026-05-06 10:56 | 48.05673 | 14.49472 | 8834 ft | 146 kts | 95° |
| 2026-05-06 10:57 | 48.05665 | 14.50992 | 8836 ft | 146 kts | 95° |
| 2026-05-06 10:57 | 48.05657 | 14.52514 | 8834 ft | 147 kts | 95° |
| 2026-05-06 10:57 | 48.05646 | 14.54040 | 8836 ft | 147 kts | 95° |
| 2026-05-06 10:57 | 48.05636 | 14.55564 | 8835 ft | 147 kts | 95° |
| 2026-05-06 10:58 | 48.05627 | 14.57080 | 8837 ft | 147 kts | 95° |
| 2026-05-06 10:58 | 48.05617 | 14.58617 | 8837 ft | 147 kts | 95° |
| 2026-05-06 10:58 | 48.05606 | 14.60143 | 8837 ft | 147 kts | 95° |
| 2026-05-06 10:58 | 48.05599 | 14.61153 | 8838 ft | 147 kts | 95° |
| 2026-05-06 10:59 | 48.05587 | 14.62678 | 8840 ft | 147 kts | 95° |
| 2026-05-06 10:59 | 48.05574 | 14.64204 | 8840 ft | 146 kts | 95° |
| 2026-05-06 10:59 | 48.05563 | 14.65731 | 8841 ft | 147 kts | 95° |
| 2026-05-06 10:59 | 48.05554 | 14.67255 | 8840 ft | 147 kts | 95° |
| 2026-05-06 11:00 | 48.05539 | 14.68778 | 8842 ft | 147 kts | 95° |
| 2026-05-06 11:00 | 48.05513 | 14.70797 | 8842 ft | 147 kts | 95° |
| 2026-05-06 11:00 | 48.05506 | 14.71829 | 8839 ft | 147 kts | 95° |
| 2026-05-06 11:00 | 48.05497 | 14.73356 | 8844 ft | 147 kts | 95° |
| 2026-05-06 11:01 | 48.05480 | 14.74884 | 8841 ft | 147 kts | 95° |
| 2026-05-06 11:01 | 48.05469 | 14.76412 | 8841 ft | 147 kts | 95° |
| 2026-05-06 11:01 | 48.05457 | 14.77941 | 8842 ft | 147 kts | 95° |
| 2026-05-06 11:01 | 48.05447 | 14.79469 | 8844 ft | 147 kts | 95° |
| 2026-05-06 11:02 | 48.05436 | 14.80998 | 8844 ft | 147 kts | 95° |
| 2026-05-06 11:02 | 48.05425 | 14.82523 | 8843 ft | 147 kts | 95° |
| 2026-05-06 11:02 | 48.05409 | 14.84051 | 8845 ft | 147 kts | 96° |
| 2026-05-06 11:02 | 48.05388 | 14.85575 | 8844 ft | 147 kts | 96° |
| 2026-05-06 11:03 | 48.05371 | 14.87083 | 8845 ft | 147 kts | 96° |
| 2026-05-06 11:03 | 48.05354 | 14.88611 | 8846 ft | 147 kts | 96° |
| 2026-05-06 11:03 | 48.05340 | 14.90139 | 8846 ft | 147 kts | 96° |
| 2026-05-06 11:03 | 48.05323 | 14.91671 | 8847 ft | 147 kts | 96° |
| 2026-05-06 11:04 | 48.05302 | 14.93203 | 8849 ft | 147 kts | 96° |
| 2026-05-06 11:04 | 48.05281 | 14.94734 | 8848 ft | 148 kts | 96° |
| 2026-05-06 11:04 | 48.05261 | 14.96272 | 8849 ft | 148 kts | 96° |
| 2026-05-06 11:04 | 48.05239 | 14.97805 | 8850 ft | 148 kts | 96° |
| 2026-05-06 11:05 | 48.05217 | 14.99340 | 8850 ft | 147 kts | 96° |
| 2026-05-06 11:05 | 48.05199 | 15.00871 | 8851 ft | 147 kts | 96° |
| 2026-05-06 11:05 | 48.05178 | 15.02401 | 8851 ft | 147 kts | 96° |
| 2026-05-06 11:05 | 48.05156 | 15.03930 | 8850 ft | 147 kts | 96° |
| 2026-05-06 11:06 | 48.05134 | 15.05461 | 8852 ft | 147 kts | 96° |
| 2026-05-06 11:06 | 48.05111 | 15.06988 | 8852 ft | 147 kts | 96° |
| 2026-05-06 11:06 | 48.05085 | 15.08512 | 8851 ft | 147 kts | 97° |
| 2026-05-06 11:06 | 48.05062 | 15.10036 | 8854 ft | 147 kts | 96° |
| 2026-05-06 11:07 | 48.05041 | 15.11560 | 8852 ft | 147 kts | 96° |
| 2026-05-06 11:07 | 48.05020 | 15.13081 | 8853 ft | 146 kts | 96° |
| 2026-05-06 11:07 | 48.04999 | 15.14603 | 8852 ft | 146 kts | 96° |
| 2026-05-06 11:07 | 48.04976 | 15.16123 | 8854 ft | 146 kts | 97° |
| 2026-05-06 11:08 | 48.04953 | 15.17642 | 8855 ft | 146 kts | 96° |
| 2026-05-06 11:08 | 48.04930 | 15.19161 | 8854 ft | 146 kts | 97° |
| 2026-05-06 11:08 | 48.04907 | 15.20680 | 8853 ft | 146 kts | 97° |
| 2026-05-06 11:08 | 48.04884 | 15.22199 | 8855 ft | 146 kts | 97° |
| 2026-05-06 11:09 | 48.04865 | 15.23716 | 8856 ft | 146 kts | 97° |
| 2026-05-06 11:09 | 48.04844 | 15.25232 | 8856 ft | 146 kts | 97° |
| 2026-05-06 11:09 | 48.04819 | 15.26746 | 8856 ft | 146 kts | 97° |
| 2026-05-06 11:09 | 48.04793 | 15.28260 | 8856 ft | 146 kts | 97° |
| 2026-05-06 11:10 | 48.04767 | 15.29774 | 8856 ft | 146 kts | 97° |
| 2026-05-06 11:10 | 48.04743 | 15.31288 | 8856 ft | 146 kts | 97° |
| 2026-05-06 11:10 | 48.04717 | 15.32799 | 8857 ft | 145 kts | 97° |
| 2026-05-06 11:10 | 48.04694 | 15.34301 | 8858 ft | 145 kts | 97° |
| 2026-05-06 11:11 | 48.04670 | 15.35808 | 8855 ft | 145 kts | 97° |
| 2026-05-06 11:11 | 48.04649 | 15.37314 | 8856 ft | 145 kts | 97° |
| 2026-05-06 11:11 | 48.04625 | 15.38821 | 8856 ft | 145 kts | 97° |
| 2026-05-06 11:11 | 48.04609 | 15.40332 | 8858 ft | 145 kts | 97° |
| 2026-05-06 11:12 | 48.04598 | 15.41843 | 8856 ft | 146 kts | 96° |
| 2026-05-06 11:12 | 48.04592 | 15.43351 | 8863 ft | 145 kts | 96° |
| 2026-05-06 11:12 | 48.04583 | 15.44858 | 8857 ft | 145 kts | 97° |
| 2026-05-06 11:12 | 48.04571 | 15.46369 | 8844 ft | 146 kts | 97° |
| 2026-05-06 11:13 | 48.04556 | 15.47878 | 8843 ft | 145 kts | 97° |
| 2026-05-06 11:13 | 48.04534 | 15.49384 | 8835 ft | 145 kts | 97° |
| 2026-05-06 11:13 | 48.04521 | 15.50905 | 8834 ft | 145 kts | 97° |
| 2026-05-06 11:13 | 48.04512 | 15.52407 | 8848 ft | 145 kts | 95° |
| 2026-05-06 11:14 | 48.04510 | 15.53910 | 8837 ft | 144 kts | 96° |
| 2026-05-06 11:14 | 48.04512 | 15.55403 | 8849 ft | 143 kts | 97° |
| 2026-05-06 11:14 | 48.04494 | 15.56897 | 8840 ft | 143 kts | 99° |
| 2026-05-06 11:14 | 48.04481 | 15.58387 | 8839 ft | 144 kts | 96° |
| 2026-05-06 11:15 | 48.04479 | 15.59875 | 8842 ft | 142 kts | 96° |
| 2026-05-06 11:15 | 48.04468 | 15.61361 | 8845 ft | 143 kts | 97° |
| 2026-05-06 11:15 | 48.04435 | 15.62856 | 8835 ft | 144 kts | 97° |
| 2026-05-06 11:15 | 48.04415 | 15.64347 | 8826 ft | 144 kts | 97° |
| 2026-05-06 11:16 | 48.04421 | 15.65839 | 8840 ft | 145 kts | 92° |
| 2026-05-06 11:16 | 48.04569 | 15.67342 | 8834 ft | 146 kts | 89° |
| 2026-05-06 11:16 | 48.04681 | 15.68846 | 8837 ft | 145 kts | 91° |
| 2026-05-06 11:16 | 48.04770 | 15.70347 | 8837 ft | 145 kts | 92° |
| 2026-05-06 11:17 | 48.04855 | 15.71843 | 8837 ft | 144 kts | 92° |
| 2026-05-06 11:17 | 48.04940 | 15.73317 | 8836 ft | 144 kts | 92° |
| 2026-05-06 11:17 | 48.05027 | 15.74825 | 8833 ft | 144 kts | 91° |
| 2026-05-06 11:17 | 48.05119 | 15.76314 | 8836 ft | 144 kts | 91° |
| 2026-05-06 11:18 | 48.05215 | 15.77799 | 8833 ft | 144 kts | 91° |
| 2026-05-06 11:18 | 48.05309 | 15.79264 | 8833 ft | 144 kts | 91° |
| 2026-05-06 11:18 | 48.05406 | 15.80751 | 8834 ft | 144 kts | 92° |
| 2026-05-06 11:18 | 48.05506 | 15.82235 | 8835 ft | 143 kts | 91° |
| 2026-05-06 11:19 | 48.05608 | 15.83713 | 8838 ft | 143 kts | 91° |
| 2026-05-06 11:19 | 48.05713 | 15.85197 | 8835 ft | 143 kts | 91° |
| 2026-05-06 11:19 | 48.05812 | 15.86681 | 8835 ft | 143 kts | 92° |
| 2026-05-06 11:19 | 48.05902 | 15.88164 | 8836 ft | 143 kts | 92° |
| 2026-05-06 11:20 | 48.05996 | 15.89645 | 8834 ft | 143 kts | 91° |
| 2026-05-06 11:20 | 48.06095 | 15.91128 | 8834 ft | 144 kts | 91° |
| 2026-05-06 11:20 | 48.06192 | 15.92615 | 8834 ft | 143 kts | 92° |
| 2026-05-06 11:20 | 48.06291 | 15.94098 | 8834 ft | 143 kts | 91° |
| 2026-05-06 11:21 | 48.06386 | 15.95578 | 8834 ft | 143 kts | 92° |
| 2026-05-06 11:21 | 48.06479 | 15.97057 | 8830 ft | 143 kts | 91° |
| 2026-05-06 11:21 | 48.06572 | 15.98535 | 8834 ft | 142 kts | 91° |
| 2026-05-06 11:21 | 48.06664 | 16.00010 | 8832 ft | 143 kts | 92° |
| 2026-05-06 11:22 | 48.06757 | 16.01489 | 8833 ft | 143 kts | 92° |
| 2026-05-06 11:22 | 48.06850 | 16.02968 | 8831 ft | 143 kts | 92° |
| 2026-05-06 11:22 | 48.06945 | 16.04448 | 8832 ft | 143 kts | 91° |
| 2026-05-06 11:22 | 48.07043 | 16.05927 | 8832 ft | 143 kts | 91° |
| 2026-05-06 11:23 | 48.07136 | 16.07411 | 8829 ft | 143 kts | 92° |
| 2026-05-06 11:23 | 48.07228 | 16.08896 | 8832 ft | 143 kts | 91° |
| 2026-05-06 11:23 | 48.07322 | 16.10376 | 8832 ft | 143 kts | 91° |
| 2026-05-06 11:23 | 48.07415 | 16.11861 | 8830 ft | 143 kts | 92° |
| 2026-05-06 11:24 | 48.07507 | 16.13345 | 8830 ft | 143 kts | 91° |
| 2026-05-06 11:24 | 48.07601 | 16.14827 | 8830 ft | 143 kts | 92° |
| 2026-05-06 11:24 | 48.07691 | 16.16310 | 8832 ft | 143 kts | 92° |
| 2026-05-06 11:24 | 48.07782 | 16.17792 | 8830 ft | 143 kts | 92° |
| 2026-05-06 11:25 | 48.07874 | 16.19277 | 8831 ft | 143 kts | 92° |
| 2026-05-06 11:25 | 48.07965 | 16.20763 | 8830 ft | 144 kts | 92° |
| 2026-05-06 11:25 | 48.08057 | 16.22252 | 8828 ft | 144 kts | 92° |
| 2026-05-06 11:25 | 48.08151 | 16.23739 | 8829 ft | 144 kts | 91° |
| 2026-05-06 11:26 | 48.08244 | 16.25227 | 8829 ft | 144 kts | 91° |
| 2026-05-06 11:26 | 48.08336 | 16.26715 | 8828 ft | 144 kts | 91° |
| 2026-05-06 11:26 | 48.08427 | 16.28203 | 8828 ft | 144 kts | 91° |
| 2026-05-06 11:26 | 48.08518 | 16.29695 | 8826 ft | 144 kts | 91° |
| 2026-05-06 11:27 | 48.08610 | 16.31189 | 8827 ft | 144 kts | 91° |
| 2026-05-06 11:27 | 48.08704 | 16.32679 | 8828 ft | 144 kts | 92° |
| 2026-05-06 11:27 | 48.08793 | 16.34173 | 8828 ft | 144 kts | 92° |
| 2026-05-06 11:27 | 48.08882 | 16.35671 | 8826 ft | 145 kts | 91° |
| 2026-05-06 11:28 | 48.08974 | 16.37171 | 8827 ft | 145 kts | 91° |
| 2026-05-06 11:28 | 48.09065 | 16.38669 | 8826 ft | 145 kts | 91° |
| 2026-05-06 11:28 | 48.09156 | 16.40171 | 8827 ft | 145 kts | 91° |
| 2026-05-06 11:28 | 48.09248 | 16.41679 | 8830 ft | 147 kts | 92° |
| 2026-05-06 11:29 | 48.09340 | 16.43214 | 8831 ft | 149 kts | 91° |
| 2026-05-06 11:29 | 48.09431 | 16.44770 | 8831 ft | 151 kts | 91° |
| 2026-05-06 11:29 | 48.09525 | 16.46346 | 8832 ft | 155 kts | 91° |
| 2026-05-06 11:29 | 48.09621 | 16.47973 | 8829 ft | 159 kts | 91° |
| 2026-05-06 11:30 | 48.09718 | 16.49633 | 8828 ft | 161 kts | 91° |
| 2026-05-06 11:30 | 48.09818 | 16.51300 | 8823 ft | 159 kts | 90° |
| 2026-05-06 11:30 | 48.09921 | 16.52919 | 8819 ft | 154 kts | 91° |
| 2026-05-06 11:30 | 48.10020 | 16.54509 | 8813 ft | 152 kts | 91° |
| 2026-05-06 11:31 | 48.10114 | 16.56074 | 8815 ft | 150 kts | 91° |
| 2026-05-06 11:31 | 48.10206 | 16.57628 | 8819 ft | 149 kts | 91° |
| 2026-05-06 11:31 | 48.10285 | 16.59167 | 8819 ft | 147 kts | 96° |
| 2026-05-06 11:31 | 48.10041 | 16.60581 | 8827 ft | 138 kts | 126° |
| 2026-05-06 11:32 | 48.09384 | 16.61572 | 8829 ft | 133 kts | 151° |
| 2026-05-06 11:32 | 48.08519 | 16.62004 | 8828 ft | 132 kts | 174° |
| 2026-05-06 11:32 | 48.07604 | 16.61840 | 8828 ft | 138 kts | 194° |
| 2026-05-06 11:32 | 48.06669 | 16.61423 | 8838 ft | 143 kts | 193° |
| 2026-05-06 11:33 | 48.05694 | 16.61054 | 8838 ft | 146 kts | 192° |
| 2026-05-06 11:33 | 48.04700 | 16.60698 | 8829 ft | 147 kts | 191° |
| 2026-05-06 11:33 | 48.03717 | 16.60346 | 8827 ft | 146 kts | 191° |
| 2026-05-06 11:33 | 48.02724 | 16.59991 | 8827 ft | 148 kts | 191° |
| 2026-05-06 11:34 | 48.01719 | 16.59628 | 8830 ft | 149 kts | 192° |
| 2026-05-06 11:34 | 48.00713 | 16.59261 | 8822 ft | 147 kts | 191° |
| 2026-05-06 11:34 | 47.99738 | 16.58904 | 8818 ft | 142 kts | 192° |
| 2026-05-06 11:34 | 47.98791 | 16.58554 | 8816 ft | 138 kts | 191° |
| 2026-05-06 11:35 | 47.97862 | 16.58212 | 8818 ft | 136 kts | 191° |
| 2026-05-06 11:35 | 47.96948 | 16.57875 | 8820 ft | 135 kts | 191° |
| 2026-05-06 11:35 | 47.96047 | 16.57541 | 8831 ft | 133 kts | 192° |
| 2026-05-06 11:35 | 47.95148 | 16.57204 | 8831 ft | 133 kts | 191° |
| 2026-05-06 11:36 | 47.94250 | 16.56869 | 8831 ft | 133 kts | 192° |
| 2026-05-06 11:36 | 47.93355 | 16.56534 | 8829 ft | 133 kts | 191° |
| 2026-05-06 11:36 | 47.92459 | 16.56204 | 8829 ft | 133 kts | 191° |
| 2026-05-06 11:36 | 47.91563 | 16.55871 | 8828 ft | 133 kts | 191° |
| 2026-05-06 11:37 | 47.90668 | 16.55535 | 8829 ft | 132 kts | 191° |
| 2026-05-06 11:37 | 47.89776 | 16.55200 | 8831 ft | 132 kts | 191° |
| 2026-05-06 11:37 | 47.88881 | 16.54868 | 8829 ft | 133 kts | 191° |
| 2026-05-06 11:37 | 47.88288 | 16.54650 | 8831 ft | 133 kts | 192° |
| 2026-05-06 11:38 | 47.87394 | 16.54324 | 8832 ft | 132 kts | 191° |
| 2026-05-06 11:38 | 47.86499 | 16.53996 | 8832 ft | 132 kts | 191° |
| 2026-05-06 11:38 | 47.85606 | 16.53665 | 8833 ft | 132 kts | 191° |
| 2026-05-06 11:38 | 47.84713 | 16.53334 | 8834 ft | 132 kts | 191° |
| 2026-05-06 11:39 | 47.83820 | 16.53008 | 8830 ft | 132 kts | 191° |
| 2026-05-06 11:39 | 47.82929 | 16.52684 | 8842 ft | 131 kts | 191° |
| 2026-05-06 11:39 | 47.82042 | 16.52352 | 8839 ft | 132 kts | 191° |
| 2026-05-06 11:39 | 47.81148 | 16.52024 | 8838 ft | 133 kts | 191° |
| 2026-05-06 11:40 | 47.80253 | 16.51698 | 8837 ft | 133 kts | 191° |
| 2026-05-06 11:40 | 47.79354 | 16.51367 | 8838 ft | 133 kts | 191° |
| 2026-05-06 11:40 | 47.78459 | 16.51031 | 8839 ft | 133 kts | 192° |
| 2026-05-06 11:40 | 47.77563 | 16.50696 | 8840 ft | 132 kts | 191° |
| 2026-05-06 11:41 | 47.76670 | 16.50366 | 8839 ft | 132 kts | 191° |
| 2026-05-06 11:41 | 47.75779 | 16.50038 | 8838 ft | 132 kts | 191° |
| 2026-05-06 11:41 | 47.74884 | 16.49708 | 8838 ft | 132 kts | 191° |
| 2026-05-06 11:41 | 47.73989 | 16.49379 | 8838 ft | 133 kts | 191° |
| 2026-05-06 11:42 | 47.73092 | 16.49050 | 8841 ft | 132 kts | 191° |
| 2026-05-06 11:42 | 47.72197 | 16.48723 | 8841 ft | 132 kts | 191° |
| 2026-05-06 11:42 | 47.71303 | 16.48392 | 8843 ft | 132 kts | 191° |
| 2026-05-06 11:42 | 47.70411 | 16.48063 | 8842 ft | 132 kts | 191° |
| 2026-05-06 11:43 | 47.69519 | 16.47736 | 8843 ft | 132 kts | 191° |
| 2026-05-06 11:43 | 47.68627 | 16.47410 | 8844 ft | 132 kts | 191° |
| 2026-05-06 11:43 | 47.67732 | 16.47082 | 8844 ft | 132 kts | 191° |
| 2026-05-06 11:44 | 47.65942 | 16.46425 | 8846 ft | 132 kts | 191° |
| 2026-05-06 11:44 | 47.65049 | 16.46097 | 8847 ft | 132 kts | 191° |
| 2026-05-06 11:44 | 47.64141 | 16.45765 | 8848 ft | 132 kts | 191° |
| 2026-05-06 11:44 | 47.63249 | 16.45438 | 8857 ft | 132 kts | 191° |
| 2026-05-06 11:45 | 47.62353 | 16.45116 | 8846 ft | 133 kts | 192° |
| 2026-05-06 11:45 | 47.61462 | 16.44784 | 8851 ft | 131 kts | 191° |
| 2026-05-06 11:45 | 47.60572 | 16.44453 | 8844 ft | 132 kts | 192° |
| 2026-05-06 11:45 | 47.59686 | 16.44111 | 8841 ft | 132 kts | 193° |
| 2026-05-06 11:46 | 47.58801 | 16.43788 | 8858 ft | 130 kts | 191° |
| 2026-05-06 11:46 | 47.57928 | 16.43487 | 8854 ft | 131 kts | 191° |
| 2026-05-06 11:46 | 47.57038 | 16.43174 | 8848 ft | 132 kts | 189° |
| 2026-05-06 11:46 | 47.56150 | 16.42866 | 8864 ft | 130 kts | 190° |
| 2026-05-06 11:47 | 47.55266 | 16.42544 | 8863 ft | 131 kts | 192° |
| 2026-05-06 11:47 | 47.54380 | 16.42213 | 8850 ft | 132 kts | 192° |
| 2026-05-06 11:47 | 47.53485 | 16.41889 | 8844 ft | 133 kts | 190° |
| 2026-05-06 11:47 | 47.52587 | 16.41570 | 8855 ft | 132 kts | 192° |
| 2026-05-06 11:48 | 47.51696 | 16.41239 | 8854 ft | 132 kts | 192° |
| 2026-05-06 11:48 | 47.50792 | 16.40897 | 8853 ft | 132 kts | 192° |
| 2026-05-06 11:48 | 47.49903 | 16.40560 | 8854 ft | 132 kts | 192° |
| 2026-05-06 11:48 | 47.49012 | 16.40233 | 8853 ft | 132 kts | 192° |
| 2026-05-06 11:49 | 47.48135 | 16.39915 | 8858 ft | 131 kts | 192° |
| 2026-05-06 11:49 | 47.47236 | 16.39585 | 8860 ft | 131 kts | 192° |
| 2026-05-06 11:49 | 47.46347 | 16.39262 | 8859 ft | 132 kts | 192° |
| 2026-05-06 11:49 | 47.45459 | 16.38935 | 8859 ft | 132 kts | 192° |
| 2026-05-06 11:50 | 47.44583 | 16.38620 | 8865 ft | 131 kts | 192° |
| 2026-05-06 11:50 | 47.43694 | 16.38299 | 8863 ft | 131 kts | 192° |
| 2026-05-06 11:50 | 47.42807 | 16.37981 | 8868 ft | 132 kts | 192° |
| 2026-05-06 11:50 | 47.41907 | 16.37659 | 8867 ft | 134 kts | 192° |
| 2026-05-06 11:51 | 47.40995 | 16.37325 | 8870 ft | 136 kts | 193° |
| 2026-05-06 11:51 | 47.40073 | 16.36990 | 8868 ft | 137 kts | 192° |
| 2026-05-06 11:51 | 47.39153 | 16.36659 | 8867 ft | 137 kts | 192° |
| 2026-05-06 11:51 | 47.38213 | 16.36318 | 8864 ft | 141 kts | 193° |
| 2026-05-06 11:52 | 47.37257 | 16.35974 | 8870 ft | 142 kts | 192° |
| 2026-05-06 11:52 | 47.36296 | 16.35627 | 8871 ft | 143 kts | 193° |
| 2026-05-06 11:52 | 47.35345 | 16.35279 | 8867 ft | 139 kts | 193° |
| 2026-05-06 11:52 | 47.34419 | 16.34939 | 8866 ft | 136 kts | 193° |
| 2026-05-06 11:53 | 47.33508 | 16.34602 | 8864 ft | 134 kts | 193° |
| 2026-05-06 11:53 | 47.32611 | 16.34273 | 8863 ft | 132 kts | 193° |
| 2026-05-06 11:53 | 47.31720 | 16.33950 | 8865 ft | 132 kts | 193° |
| 2026-05-06 11:53 | 47.30830 | 16.33634 | 8867 ft | 131 kts | 192° |
| 2026-05-06 11:54 | 47.29941 | 16.33315 | 8867 ft | 132 kts | 193° |
| 2026-05-06 11:54 | 47.29049 | 16.32995 | 8870 ft | 132 kts | 193° |
| 2026-05-06 11:54 | 47.28160 | 16.32674 | 8872 ft | 132 kts | 193° |
| 2026-05-06 11:54 | 47.27273 | 16.32345 | 8874 ft | 131 kts | 193° |
| 2026-05-06 11:55 | 47.26390 | 16.32014 | 8874 ft | 131 kts | 193° |
| 2026-05-06 11:55 | 47.25504 | 16.31694 | 8875 ft | 131 kts | 193° |
| 2026-05-06 11:55 | 47.24618 | 16.31381 | 8875 ft | 131 kts | 193° |
| 2026-05-06 11:55 | 47.23733 | 16.31069 | 8876 ft | 131 kts | 193° |
| 2026-05-06 11:56 | 47.22849 | 16.30753 | 8875 ft | 131 kts | 193° |
| 2026-05-06 11:56 | 47.21964 | 16.30437 | 8876 ft | 131 kts | 193° |
| 2026-05-06 11:56 | 47.21080 | 16.30122 | 8877 ft | 131 kts | 193° |
| 2026-05-06 11:56 | 47.20197 | 16.29805 | 8879 ft | 130 kts | 193° |
| 2026-05-06 11:57 | 47.19317 | 16.29486 | 8881 ft | 130 kts | 193° |
| 2026-05-06 11:57 | 47.18437 | 16.29166 | 8883 ft | 130 kts | 194° |
| 2026-05-06 11:57 | 47.17555 | 16.28852 | 8888 ft | 132 kts | 193° |
| 2026-05-06 11:57 | 47.16647 | 16.28528 | 8889 ft | 136 kts | 194° |
| 2026-05-06 11:58 | 47.15720 | 16.28192 | 8891 ft | 138 kts | 194° |
| 2026-05-06 11:58 | 47.14784 | 16.27851 | 8894 ft | 139 kts | 194° |
| 2026-05-06 11:58 | 47.13849 | 16.27507 | 8885 ft | 137 kts | 194° |
| 2026-05-06 11:58 | 47.12934 | 16.27177 | 8880 ft | 134 kts | 194° |
| 2026-05-06 11:59 | 47.12032 | 16.26853 | 8878 ft | 133 kts | 194° |
| 2026-05-06 11:59 | 47.11142 | 16.26534 | 8876 ft | 131 kts | 194° |
| 2026-05-06 11:59 | 47.10253 | 16.26216 | 8878 ft | 131 kts | 194° |
| 2026-05-06 11:59 | 47.09372 | 16.25896 | 8880 ft | 130 kts | 194° |
| 2026-05-06 12:00 | 47.08494 | 16.25581 | 8882 ft | 130 kts | 194° |
| 2026-05-06 12:00 | 47.07608 | 16.25265 | 8884 ft | 130 kts | 194° |
| 2026-05-06 12:00 | 47.06716 | 16.24946 | 8884 ft | 129 kts | 194° |
| 2026-05-06 12:00 | 47.05846 | 16.24635 | 8890 ft | 129 kts | 194° |
| 2026-05-06 12:01 | 47.04976 | 16.24325 | 8892 ft | 129 kts | 194° |
| 2026-05-06 12:01 | 47.04107 | 16.24012 | 8894 ft | 129 kts | 194° |
| 2026-05-06 12:01 | 47.03239 | 16.23701 | 8895 ft | 129 kts | 194° |
| 2026-05-06 12:01 | 47.02369 | 16.23390 | 8896 ft | 129 kts | 194° |
| 2026-05-06 12:02 | 47.01499 | 16.23079 | 8897 ft | 129 kts | 195° |
| 2026-05-06 12:02 | 47.00631 | 16.22762 | 8896 ft | 129 kts | 197° |
| 2026-05-06 12:02 | 46.99892 | 16.22048 | 8893 ft | 131 kts | 228° |
| 2026-05-06 12:02 | 46.99586 | 16.20772 | 8897 ft | 139 kts | 258° |
| 2026-05-06 12:03 | 46.99544 | 16.19362 | 8902 ft | 138 kts | 258° |
| 2026-05-06 12:03 | 46.99447 | 16.17967 | 8900 ft | 138 kts | 255° |
| 2026-05-06 12:03 | 46.99321 | 16.16578 | 8899 ft | 138 kts | 255° |
| 2026-05-06 12:03 | 46.99191 | 16.15186 | 8897 ft | 138 kts | 255° |
| 2026-05-06 12:04 | 46.99065 | 16.13796 | 8896 ft | 138 kts | 255° |
| 2026-05-06 12:04 | 46.98942 | 16.12404 | 8893 ft | 138 kts | 255° |
| 2026-05-06 12:04 | 46.98820 | 16.11010 | 8894 ft | 138 kts | 255° |
| 2026-05-06 12:04 | 46.98700 | 16.09613 | 8894 ft | 138 kts | 255° |
| 2026-05-06 12:05 | 46.98582 | 16.08217 | 8894 ft | 138 kts | 256° |
| 2026-05-06 12:05 | 46.98466 | 16.06821 | 8892 ft | 138 kts | 255° |
| 2026-05-06 12:05 | 46.98341 | 16.05425 | 8892 ft | 138 kts | 255° |
| 2026-05-06 12:05 | 46.98220 | 16.04035 | 8894 ft | 138 kts | 255° |
| 2026-05-06 12:06 | 46.98101 | 16.02643 | 8893 ft | 138 kts | 255° |
| 2026-05-06 12:06 | 46.97983 | 16.01249 | 8893 ft | 138 kts | 256° |
| 2026-05-06 12:06 | 46.97863 | 15.99856 | 8892 ft | 138 kts | 255° |
| 2026-05-06 12:06 | 46.97739 | 15.98459 | 8890 ft | 139 kts | 255° |
| 2026-05-06 12:07 | 46.97616 | 15.97057 | 8891 ft | 139 kts | 255° |
| 2026-05-06 12:07 | 46.97495 | 15.95655 | 8894 ft | 139 kts | 255° |
| 2026-05-06 12:07 | 46.97376 | 15.94249 | 8895 ft | 140 kts | 255° |
| 2026-05-06 12:07 | 46.97255 | 15.92816 | 8897 ft | 143 kts | 256° |
| 2026-05-06 12:08 | 46.97130 | 15.91368 | 8898 ft | 144 kts | 255° |
| 2026-05-06 12:08 | 46.97001 | 15.89908 | 8894 ft | 145 kts | 255° |
| 2026-05-06 12:08 | 46.96872 | 15.88451 | 8893 ft | 146 kts | 255° |
| 2026-05-06 12:08 | 46.96741 | 15.86956 | 8896 ft | 150 kts | 255° |
| 2026-05-06 12:09 | 46.96605 | 15.85426 | 8890 ft | 153 kts | 256° |
| 2026-05-06 12:09 | 46.96471 | 15.83878 | 8889 ft | 153 kts | 256° |
| 2026-05-06 12:09 | 46.96342 | 15.82366 | 8882 ft | 147 kts | 256° |
| 2026-05-06 12:09 | 46.96217 | 15.80893 | 8880 ft | 144 kts | 255° |
| 2026-05-06 12:10 | 46.96092 | 15.79448 | 8877 ft | 142 kts | 255° |
| 2026-05-06 12:10 | 46.95965 | 15.78025 | 8884 ft | 140 kts | 255° |
| 2026-05-06 12:10 | 46.95838 | 15.76616 | 8886 ft | 139 kts | 255° |
| 2026-05-06 12:10 | 46.95711 | 15.75212 | 8888 ft | 138 kts | 255° |
| 2026-05-06 12:11 | 46.95588 | 15.73819 | 8888 ft | 138 kts | 255° |
| 2026-05-06 12:11 | 46.95464 | 15.72422 | 8888 ft | 138 kts | 255° |
| 2026-05-06 12:11 | 46.95340 | 15.71024 | 8890 ft | 138 kts | 255° |
| 2026-05-06 12:11 | 46.95219 | 15.69631 | 8887 ft | 138 kts | 255° |
| 2026-05-06 12:12 | 46.95094 | 15.68239 | 8888 ft | 138 kts | 255° |
| 2026-05-06 12:12 | 46.94969 | 15.66848 | 8888 ft | 138 kts | 255° |
| 2026-05-06 12:12 | 46.94844 | 15.65455 | 8888 ft | 138 kts | 255° |
| 2026-05-06 12:12 | 46.94718 | 15.64067 | 8891 ft | 138 kts | 256° |
| 2026-05-06 12:13 | 46.94636 | 15.63143 | 8891 ft | 138 kts | 256° |
| 2026-05-06 12:13 | 46.94513 | 15.61751 | 8889 ft | 138 kts | 256° |
| 2026-05-06 12:13 | 46.94390 | 15.60363 | 8889 ft | 138 kts | 256° |
| 2026-05-06 12:13 | 46.94267 | 15.58972 | 8888 ft | 138 kts | 256° |
| 2026-05-06 12:14 | 46.94307 | 15.57554 | 8883 ft | 147 kts | 281° |
| 2026-05-06 12:14 | 46.95009 | 15.56420 | 8892 ft | 161 kts | 327° |
| 2026-05-06 12:14 | 46.96124 | 15.56071 | 8903 ft | 166 kts | 348° |
| 2026-05-06 12:14 | 46.97272 | 15.55848 | 8901 ft | 167 kts | 348° |
| 2026-05-06 12:15 | 46.98424 | 15.55621 | 8893 ft | 167 kts | 348° |
| 2026-05-06 12:15 | 46.99582 | 15.55409 | 8889 ft | 168 kts | 348° |
| 2026-05-06 12:15 | 47.00736 | 15.55181 | 8886 ft | 168 kts | 351° |
| 2026-05-06 12:15 | 47.01906 | 15.55102 | 8885 ft | 169 kts | 355° |
| 2026-05-06 12:16 | 47.03080 | 15.55045 | 8884 ft | 168 kts | 354° |
| 2026-05-06 12:16 | 47.04245 | 15.54952 | 8884 ft | 168 kts | 353° |
| 2026-05-06 12:16 | 47.05407 | 15.54837 | 8889 ft | 168 kts | 351° |
| 2026-05-06 12:16 | 47.06600 | 15.54682 | 8886 ft | 175 kts | 352° |
| 2026-05-06 12:17 | 47.07827 | 15.54534 | 8888 ft | 179 kts | 352° |
| 2026-05-06 12:17 | 47.09068 | 15.54389 | 8884 ft | 177 kts | 351° |
| 2026-05-06 12:17 | 47.10273 | 15.54199 | 8881 ft | 172 kts | 348° |
| 2026-05-06 12:17 | 47.11451 | 15.53955 | 8879 ft | 170 kts | 348° |
| 2026-05-06 12:18 | 47.12618 | 15.53722 | 8852 ft | 170 kts | 348° |
| 2026-05-06 12:18 | 47.13796 | 15.53489 | 8769 ft | 171 kts | 349° |
| 2026-05-06 12:18 | 47.14986 | 15.53266 | 8696 ft | 173 kts | 348° |
| 2026-05-06 12:18 | 47.16180 | 15.53045 | 8627 ft | 174 kts | 349° |
| 2026-05-06 12:19 | 47.17376 | 15.52802 | 8559 ft | 173 kts | 348° |
| 2026-05-06 12:19 | 47.18570 | 15.52552 | 8484 ft | 173 kts | 347° |
| 2026-05-06 12:19 | 47.19753 | 15.52237 | 8410 ft | 173 kts | 346° |
| 2026-05-06 12:19 | 47.20938 | 15.51938 | 8337 ft | 173 kts | 346° |
| 2026-05-06 12:20 | 47.22126 | 15.51623 | 8265 ft | 175 kts | 347° |
| 2026-05-06 12:20 | 47.23335 | 15.51315 | 8195 ft | 175 kts | 346° |
| 2026-05-06 12:20 | 47.24535 | 15.51015 | 8118 ft | 176 kts | 347° |
| 2026-05-06 12:20 | 47.25745 | 15.50670 | 8046 ft | 177 kts | 346° |
| 2026-05-06 12:21 | 47.26965 | 15.50375 | 7972 ft | 178 kts | 347° |
| 2026-05-06 12:21 | 47.28185 | 15.50058 | 7897 ft | 177 kts | 348° |
| 2026-05-06 12:21 | 47.29385 | 15.49750 | 7818 ft | 174 kts | 347° |
| 2026-05-06 12:21 | 47.30574 | 15.49453 | 7735 ft | 173 kts | 346° |
| 2026-05-06 12:22 | 47.31754 | 15.49133 | 7657 ft | 172 kts | 346° |
| 2026-05-06 12:22 | 47.32868 | 15.48587 | 7559 ft | 166 kts | 318° |
| 2026-05-06 12:22 | 47.33402 | 15.47227 | 7520 ft | 149 kts | 270° |
| 2026-05-06 12:22 | 47.33302 | 15.45756 | 7524 ft | 143 kts | 255° |
| 2026-05-06 12:23 | 47.33158 | 15.44308 | 7517 ft | 142 kts | 256° |
| 2026-05-06 12:23 | 47.32999 | 15.42872 | 7512 ft | 142 kts | 255° |
| 2026-05-06 12:23 | 47.32835 | 15.41442 | 7508 ft | 141 kts | 253° |
| 2026-05-06 12:23 | 47.32676 | 15.40011 | 7504 ft | 141 kts | 254° |
| 2026-05-06 12:24 | 47.32500 | 15.38588 | 7504 ft | 141 kts | 255° |
| 2026-05-06 12:24 | 47.32342 | 15.37159 | 7502 ft | 142 kts | 256° |
| 2026-05-06 12:24 | 47.32176 | 15.35732 | 7503 ft | 141 kts | 254° |
| 2026-05-06 12:24 | 47.31982 | 15.34324 | 7502 ft | 139 kts | 246° |
| 2026-05-06 12:25 | 47.31384 | 15.33309 | 7496 ft | 132 kts | 204° |
| 2026-05-06 12:25 | 47.30496 | 15.33303 | 7501 ft | 136 kts | 161° |
| 2026-05-06 12:25 | 47.29714 | 15.34145 | 7432 ft | 145 kts | 148° |
| 2026-05-06 12:25 | 47.28949 | 15.34858 | 7169 ft | 116 kts | 158° |
| 2026-05-06 12:26 | 47.28209 | 15.35338 | 7055 ft | 111 kts | 163° |
| 2026-05-06 12:26 | 47.27459 | 15.35737 | 7021 ft | 118 kts | 166° |
| 2026-05-06 12:26 | 47.26663 | 15.36080 | 7016 ft | 119 kts | 169° |
| 2026-05-06 12:26 | 47.25852 | 15.36363 | 7016 ft | 123 kts | 171° |
| 2026-05-06 12:27 | 47.24997 | 15.36659 | 7013 ft | 128 kts | 170° |
| 2026-05-06 12:27 | 47.24125 | 15.36952 | 7011 ft | 129 kts | 171° |
| 2026-05-06 12:27 | 47.23233 | 15.37201 | 6931 ft | 134 kts | 172° |
| 2026-05-06 12:27 | 47.22364 | 15.37457 | 6664 ft | 110 kts | 172° |
| 2026-05-06 12:28 | 47.21650 | 15.37661 | 6444 ft | 108 kts | 173° |
| 2026-05-06 12:28 | 47.20878 | 15.37887 | 6264 ft | 117 kts | 171° |
| 2026-05-06 12:28 | 47.20058 | 15.38102 | 6091 ft | 120 kts | 172° |
| 2026-05-06 12:28 | 47.19255 | 15.38331 | 5903 ft | 115 kts | 173° |
| 2026-05-06 12:29 | 47.18473 | 15.38548 | 5712 ft | 114 kts | 172° |
| 2026-05-06 12:29 | 47.17700 | 15.38756 | 5523 ft | 112 kts | 173° |
| 2026-05-06 12:29 | 47.16944 | 15.38976 | 5347 ft | 111 kts | 172° |
| 2026-05-06 12:29 | 47.16179 | 15.39170 | 5244 ft | 108 kts | 173° |
| 2026-05-06 12:30 | 47.15473 | 15.39376 | 5219 ft | 100 kts | 171° |
| 2026-05-06 12:30 | 47.14816 | 15.39571 | 5213 ft | 94 kts | 173° |
| 2026-05-06 12:30 | 47.14190 | 15.39752 | 5211 ft | 89 kts | 173° |
| 2026-05-06 12:30 | 47.13564 | 15.39942 | 5118 ft | 99 kts | 172° |
| 2026-05-06 12:31 | 47.12845 | 15.40134 | 4955 ft | 110 kts | 173° |
| 2026-05-06 12:31 | 47.12067 | 15.40334 | 4784 ft | 117 kts | 172° |
| 2026-05-06 12:31 | 47.11244 | 15.40547 | 4613 ft | 124 kts | 172° |
| 2026-05-06 12:31 | 47.10383 | 15.40790 | 4428 ft | 126 kts | 171° |
| 2026-05-06 12:32 | 47.09520 | 15.41014 | 4246 ft | 126 kts | 171° |
| 2026-05-06 12:32 | 47.08660 | 15.41261 | 4064 ft | 126 kts | 171° |
| 2026-05-06 12:32 | 47.07827 | 15.41490 | 3881 ft | 118 kts | 172° |
| 2026-05-06 12:32 | 47.07018 | 15.41728 | 3702 ft | 117 kts | 171° |
| 2026-05-06 12:33 | 47.06224 | 15.41940 | 3516 ft | 113 kts | 171° |
| 2026-05-06 12:33 | 47.05495 | 15.42153 | 3339 ft | 101 kts | 171° |
| 2026-05-06 12:33 | 47.04825 | 15.42339 | 3161 ft | 97 kts | 171° |
| 2026-05-06 12:33 | 47.04162 | 15.42530 | 2991 ft | 97 kts | 171° |
| 2026-05-06 12:34 | 47.03493 | 15.42707 | 2822 ft | 98 kts | 171° |
| 2026-05-06 12:34 | 47.02825 | 15.42902 | 2646 ft | 97 kts | 171° |
| 2026-05-06 12:34 | 47.02197 | 15.43089 | 2462 ft | 85 kts | 170° |
| 2026-05-06 12:34 | 47.01625 | 15.43205 | 2155 ft | 85 kts | 176° |
| 2026-05-06 12:35 | 47.01046 | 15.43369 | 1844 ft | 81 kts | 166° |
| 2026-05-06 12:35 | 47.00518 | 15.43592 | 1586 ft | 74 kts | 169° |
| 2026-05-06 12:35 | 47.00065 | 15.43727 | 1436 ft | 63 kts | 177° |
| 2026-05-06 12:35 | 46.99572 | 15.43851 | 1542 ft | 75 kts | 171° |
| 2026-05-06 12:36 | 46.99088 | 15.44008 | 1776 ft | 67 kts | 168° |
| 2026-05-06 12:36 | 46.98653 | 15.44197 | 2005 ft | 62 kts | 159° |
| 2026-05-06 12:36 | 46.98298 | 15.44477 | 2188 ft | 62 kts | 159° |
| 2026-05-06 12:36 | 46.97844 | 15.44794 | 2212 ft | 88 kts | 161° |
| 2026-05-06 12:37 | 46.97225 | 15.44835 | 2324 ft | 95 kts | 197° |
| 2026-05-06 12:37 | 46.96557 | 15.44746 | 2436 ft | 102 kts | 171° |
| 2026-05-06 12:37 | 46.95845 | 15.44940 | 2544 ft | 107 kts | 172° |
| 2026-05-06 12:37 | 46.95098 | 15.45183 | 2643 ft | 112 kts | 169° |
| 2026-05-06 12:38 | 46.94396 | 15.45715 | 2729 ft | 120 kts | 136° |
| 2026-05-06 12:38 | 46.94065 | 15.46861 | 2828 ft | 126 kts | 105° |
| 2026-05-06 12:38 | 46.93896 | 15.48129 | 2932 ft | 127 kts | 105° |
| 2026-05-06 12:38 | 46.93724 | 15.49404 | 3036 ft | 128 kts | 105° |
| 2026-05-06 12:39 | 46.93551 | 15.50691 | 3139 ft | 129 kts | 105° |
| 2026-05-06 12:39 | 46.93389 | 15.51988 | 3243 ft | 129 kts | 104° |
| 2026-05-06 12:39 | 46.93233 | 15.53287 | 3349 ft | 132 kts | 104° |
| 2026-05-06 12:39 | 46.93064 | 15.54627 | 3448 ft | 136 kts | 104° |
| 2026-05-06 12:40 | 46.92890 | 15.56006 | 3544 ft | 139 kts | 104° |
| 2026-05-06 12:40 | 46.92713 | 15.57404 | 3646 ft | 140 kts | 105° |
| 2026-05-06 12:40 | 46.92551 | 15.58797 | 3738 ft | 137 kts | 104° |
| 2026-05-06 12:40 | 46.92395 | 15.60159 | 3826 ft | 135 kts | 105° |
| 2026-05-06 12:41 | 46.92238 | 15.61504 | 3913 ft | 133 kts | 105° |
| 2026-05-06 12:41 | 46.92082 | 15.62833 | 4002 ft | 132 kts | 104° |
| 2026-05-06 12:41 | 46.91933 | 15.64160 | 4100 ft | 134 kts | 104° |
| 2026-05-06 12:41 | 46.91786 | 15.65524 | 4204 ft | 137 kts | 104° |
| 2026-05-06 12:42 | 46.91634 | 15.66911 | 4314 ft | 139 kts | 104° |
| 2026-05-06 12:42 | 46.91483 | 15.68311 | 4421 ft | 140 kts | 103° |
| 2026-05-06 12:42 | 46.91337 | 15.69698 | 4519 ft | 137 kts | 105° |
| 2026-05-06 12:42 | 46.91194 | 15.71078 | 4616 ft | 138 kts | 104° |
| 2026-05-06 12:43 | 46.91050 | 15.72460 | 4711 ft | 137 kts | 107° |
| 2026-05-06 12:43 | 46.90806 | 15.73796 | 4810 ft | 136 kts | 111° |
| 2026-05-06 12:43 | 46.90519 | 15.75091 | 4906 ft | 133 kts | 117° |
| 2026-05-06 12:43 | 46.90199 | 15.76364 | 4995 ft | 137 kts | 116° |
| 2026-05-06 12:44 | 46.89860 | 15.77715 | 5027 ft | 143 kts | 116° |
| 2026-05-06 12:44 | 46.89515 | 15.79076 | 5024 ft | 147 kts | 117° |
| 2026-05-06 12:44 | 46.89154 | 15.80460 | 5021 ft | 145 kts | 117° |
| 2026-05-06 12:44 | 46.88994 | 15.81918 | 5007 ft | 152 kts | 86° |
| 2026-05-06 12:45 | 46.89501 | 15.83231 | 5133 ft | 150 kts | 43° |
| 2026-05-06 12:45 | 46.90449 | 15.83770 | 5246 ft | 147 kts | 359° |
| 2026-05-06 12:45 | 46.91822 | 15.82176 | 5517 ft | 125 kts | 279° |
| 2026-05-06 12:46 | 46.92020 | 15.80979 | 5660 ft | 122 kts | 274° |
| 2026-05-06 12:46 | 46.92183 | 15.79769 | 5792 ft | 121 kts | 273° |
| 2026-05-06 12:46 | 46.92344 | 15.78545 | 5923 ft | 120 kts | 272° |
| 2026-05-06 12:46 | 46.92502 | 15.77346 | 6044 ft | 120 kts | 272° |
| 2026-05-06 12:47 | 46.92656 | 15.76163 | 6163 ft | 120 kts | 272° |
| 2026-05-06 12:47 | 46.92836 | 15.74958 | 6289 ft | 121 kts | 278° |
| 2026-05-06 12:47 | 46.93187 | 15.73834 | 6416 ft | 128 kts | 294° |
| 2026-05-06 12:47 | 46.93767 | 15.72793 | 6548 ft | 136 kts | 307° |
| 2026-05-06 12:48 | 46.94507 | 15.71859 | 6683 ft | 141 kts | 316° |
| 2026-05-06 12:48 | 46.95300 | 15.71022 | 6798 ft | 144 kts | 319° |
| 2026-05-06 12:48 | 46.96120 | 15.70208 | 6913 ft | 140 kts | 320° |
| 2026-05-06 12:48 | 46.96923 | 15.69428 | 7024 ft | 137 kts | 320° |
| 2026-05-06 12:49 | 46.97714 | 15.68655 | 7134 ft | 136 kts | 319° |
| 2026-05-06 12:49 | 46.98495 | 15.67885 | 7248 ft | 135 kts | 318° |
| 2026-05-06 12:49 | 46.99278 | 15.67112 | 7372 ft | 133 kts | 319° |
| 2026-05-06 12:49 | 47.00037 | 15.66356 | 7488 ft | 133 kts | 318° |
| 2026-05-06 12:50 | 47.00818 | 15.65578 | 7512 ft | 138 kts | 319° |
| 2026-05-06 12:50 | 47.01627 | 15.64767 | 7525 ft | 143 kts | 319° |
| 2026-05-06 12:50 | 47.02463 | 15.63939 | 7526 ft | 147 kts | 319° |
| 2026-05-06 12:50 | 47.03322 | 15.63093 | 7519 ft | 150 kts | 320° |
| 2026-05-06 12:51 | 47.04191 | 15.62230 | 7519 ft | 152 kts | 320° |
| 2026-05-06 12:51 | 47.05068 | 15.61355 | 7515 ft | 153 kts | 319° |
| 2026-05-06 12:51 | 47.05961 | 15.60466 | 7512 ft | 159 kts | 320° |
| 2026-05-06 12:51 | 47.06897 | 15.59533 | 7516 ft | 165 kts | 320° |
| 2026-05-06 12:52 | 47.07534 | 15.58902 | 7513 ft | 168 kts | 320° |
| 2026-05-06 12:52 | 47.08508 | 15.57930 | 7506 ft | 169 kts | 320° |
| 2026-05-06 12:52 | 47.09469 | 15.56979 | 7505 ft | 165 kts | 320° |
| 2026-05-06 12:52 | 47.10412 | 15.56048 | 7501 ft | 162 kts | 320° |
| 2026-05-06 12:53 | 47.11341 | 15.55124 | 7504 ft | 161 kts | 320° |
| 2026-05-06 12:53 | 47.12260 | 15.54204 | 7507 ft | 159 kts | 320° |
| 2026-05-06 12:53 | 47.13174 | 15.53286 | 7513 ft | 160 kts | 320° |
| 2026-05-06 12:53 | 47.14101 | 15.52354 | 7515 ft | 163 kts | 320° |
| 2026-05-06 12:54 | 47.15047 | 15.51413 | 7518 ft | 165 kts | 320° |
| 2026-05-06 12:54 | 47.16027 | 15.50515 | 7507 ft | 168 kts | 333° |
| 2026-05-06 12:54 | 47.17174 | 15.50176 | 7519 ft | 168 kts | 349° |
| 2026-05-06 12:54 | 47.18323 | 15.49936 | 7518 ft | 166 kts | 348° |
| 2026-05-06 12:55 | 47.19469 | 15.49700 | 7515 ft | 166 kts | 349° |
| 2026-05-06 12:55 | 47.20615 | 15.49454 | 7512 ft | 167 kts | 348° |
| 2026-05-06 12:55 | 47.21760 | 15.49192 | 7511 ft | 167 kts | 347° |
| 2026-05-06 12:55 | 47.22916 | 15.48932 | 7514 ft | 170 kts | 349° |
| 2026-05-06 12:56 | 47.24095 | 15.48691 | 7516 ft | 171 kts | 348° |
| 2026-05-06 12:56 | 47.25274 | 15.48428 | 7511 ft | 170 kts | 348° |
| 2026-05-06 12:56 | 47.26434 | 15.48169 | 7509 ft | 167 kts | 348° |
| 2026-05-06 12:56 | 47.27578 | 15.47920 | 7501 ft | 163 kts | 348° |
| 2026-05-06 12:57 | 47.28693 | 15.47678 | 7496 ft | 161 kts | 349° |
| 2026-05-06 12:57 | 47.29799 | 15.47442 | 7497 ft | 160 kts | 350° |
| 2026-05-06 12:57 | 47.30892 | 15.47232 | 7500 ft | 158 kts | 347° |
| 2026-05-06 12:57 | 47.31919 | 15.46710 | 7505 ft | 156 kts | 321° |
| 2026-05-06 12:58 | 47.32538 | 15.45497 | 7508 ft | 146 kts | 279° |
| 2026-05-06 12:58 | 47.32587 | 15.44081 | 7519 ft | 137 kts | 262° |
| 2026-05-06 12:58 | 47.32553 | 15.42682 | 7510 ft | 136 kts | 262° |
| 2026-05-06 12:58 | 47.32533 | 15.41320 | 7501 ft | 132 kts | 263° |
| 2026-05-06 12:59 | 47.32515 | 15.39975 | 7494 ft | 130 kts | 260° |
| 2026-05-06 12:59 | 47.32480 | 15.38647 | 7499 ft | 129 kts | 261° |
| 2026-05-06 12:59 | 47.32458 | 15.37330 | 7494 ft | 128 kts | 263° |
| 2026-05-06 12:59 | 47.32427 | 15.36016 | 7491 ft | 129 kts | 262° |
| 2026-05-06 13:00 | 47.32243 | 15.34738 | 7383 ft | 129 kts | 233° |
| 2026-05-06 13:00 | 47.31536 | 15.34075 | 7264 ft | 123 kts | 188° |
| 2026-05-06 13:00 | 47.30713 | 15.34367 | 7157 ft | 124 kts | 160° |
| 2026-05-06 13:00 | 47.29919 | 15.34860 | 7036 ft | 124 kts | 165° |
| 2026-05-06 13:01 | 47.29112 | 15.35263 | 7014 ft | 122 kts | 166° |
| 2026-05-06 13:01 | 47.28304 | 15.35610 | 7006 ft | 121 kts | 169° |
| 2026-05-06 13:01 | 47.27497 | 15.35916 | 7005 ft | 120 kts | 169° |
| 2026-05-06 13:01 | 47.26660 | 15.36194 | 7014 ft | 126 kts | 171° |
| 2026-05-06 13:02 | 47.25795 | 15.36466 | 7019 ft | 128 kts | 172° |
| 2026-05-06 13:02 | 47.24943 | 15.36719 | 7002 ft | 123 kts | 173° |
| 2026-05-06 13:02 | 47.24112 | 15.36948 | 7000 ft | 119 kts | 172° |
| 2026-05-06 13:02 | 47.23305 | 15.37186 | 6955 ft | 120 kts | 173° |
| 2026-05-06 13:03 | 47.22543 | 15.37400 | 6699 ft | 101 kts | 172° |
| 2026-05-06 13:03 | 47.21882 | 15.37623 | 6486 ft | 99 kts | 172° |
| 2026-05-06 13:03 | 47.21185 | 15.37821 | 6317 ft | 103 kts | 174° |
| 2026-05-06 13:03 | 47.20479 | 15.37997 | 6146 ft | 103 kts | 173° |
| 2026-05-06 13:04 | 47.19775 | 15.38188 | 5970 ft | 103 kts | 173° |
| 2026-05-06 13:04 | 47.19075 | 15.38387 | 5791 ft | 102 kts | 173° |
| 2026-05-06 13:04 | 47.18385 | 15.38586 | 5606 ft | 99 kts | 172° |
| 2026-05-06 13:04 | 47.17726 | 15.38784 | 5423 ft | 95 kts | 172° |
| 2026-05-06 13:05 | 47.17121 | 15.38953 | 5291 ft | 91 kts | 173° |
| 2026-05-06 13:05 | 47.16473 | 15.39122 | 5228 ft | 95 kts | 174° |
| 2026-05-06 13:05 | 47.15821 | 15.39299 | 5221 ft | 96 kts | 173° |
| 2026-05-06 13:05 | 47.15151 | 15.39480 | 5209 ft | 99 kts | 173° |
| 2026-05-06 13:06 | 47.14478 | 15.39679 | 5210 ft | 98 kts | 172° |
| 2026-05-06 13:06 | 47.13808 | 15.39871 | 5212 ft | 98 kts | 174° |
| 2026-05-06 13:06 | 47.13116 | 15.40048 | 5111 ft | 107 kts | 172° |
| 2026-05-06 13:06 | 47.12346 | 15.40257 | 4937 ft | 116 kts | 173° |
| 2026-05-06 13:07 | 47.11538 | 15.40480 | 4773 ft | 120 kts | 171° |
| 2026-05-06 13:07 | 47.10733 | 15.40692 | 4594 ft | 117 kts | 172° |
| 2026-05-06 13:07 | 47.09971 | 15.40899 | 4390 ft | 108 kts | 171° |
| 2026-05-06 13:07 | 47.09246 | 15.41099 | 4202 ft | 105 kts | 173° |
| 2026-05-06 13:08 | 47.08543 | 15.41313 | 4026 ft | 101 kts | 171° |
| 2026-05-06 13:08 | 47.07870 | 15.41499 | 3844 ft | 97 kts | 173° |
| 2026-05-06 13:08 | 47.07220 | 15.41676 | 3650 ft | 92 kts | 171° |
| 2026-05-06 13:08 | 47.06631 | 15.41850 | 3493 ft | 83 kts | 171° |
| 2026-05-06 13:09 | 47.06066 | 15.42006 | 3315 ft | 83 kts | 172° |
| 2026-05-06 13:09 | 47.05507 | 15.42156 | 3135 ft | 81 kts | 171° |
| 2026-05-06 13:09 | 47.04966 | 15.42304 | 2964 ft | 75 kts | 171° |
| 2026-05-06 13:09 | 47.04486 | 15.42443 | 2791 ft | 68 kts | 172° |
| 2026-05-06 13:10 | 47.04032 | 15.42573 | 2616 ft | 65 kts | 173° |
| 2026-05-06 13:10 | 47.03616 | 15.42780 | 2433 ft | 61 kts | 174° |
| 2026-05-06 13:10 | 47.03205 | 15.42834 | 2251 ft | 60 kts | 176° |
| 2026-05-06 13:10 | 47.02794 | 15.42941 | 2047 ft | 60 kts | 169° |
| 2026-05-06 13:11 | 47.02385 | 15.43099 | 1850 ft | 61 kts | 172° |
| 2026-05-06 13:11 | 47.01988 | 15.43202 | 1680 ft | 59 kts | 176° |
| 2026-05-06 13:11 | 47.01585 | 15.43289 | 1545 ft | 57 kts | 179° |
| 2026-05-06 13:11 | 47.01196 | 15.43390 | 1385 ft | 57 kts | 173° |
| 2026-05-06 13:12 | 47.00812 | 15.43501 | 1269 ft | 54 kts | 172° |
| 2026-05-06 13:12 | 47.00447 | 15.43605 | 1188 ft | 54 kts | 173° |
| 2026-05-06 13:12 | 47.00105 | 15.43697 | 1133 ft | 45 kts | 175° |
| 2026-05-06 13:12 | 46.99867 | 15.43750 | 1119 ft | 26 kts | 170° |
| 2026-05-06 13:13 | 46.99800 | 15.43769 | 1119 ft | 3 kts | 169° |
| 2026-05-06 13:13 | 46.99771 | 15.43778 | 1119 ft | 5 kts | 168° |
| 2026-05-06 13:13 | 46.99737 | 15.43789 | 1119 ft | 5 kts | 159° |
| 2026-05-06 13:13 | 46.99713 | 15.43826 | 1119 ft | 5 kts | 90° |
| 2026-05-06 13:14 | 46.99749 | 15.43874 | 1119 ft | 10 kts | 9° |
| 2026-05-06 13:14 | 46.99831 | 15.43903 | 1119 ft | 15 kts | 14° |
| 2026-05-06 13:14 | 46.99916 | 15.43969 | 1119 ft | 14 kts | 59° |
| 2026-05-06 13:14 | 46.99925 | 15.44015 | 1119 ft | 0 kts | 81° |
| 2026-05-06 13:15 | 46.99928 | 15.44037 | 1119 ft | 5 kts | 81° |
| 2026-05-06 13:15 | 46.99930 | 15.44107 | 1119 ft | 8 kts | 114° |
| 2026-05-06 13:15 | 46.99886 | 15.44148 | 1119 ft | 2 kts | 170° |
| 2026-05-06 13:16 | 46.99886 | 15.44149 | 1119 ft | 0 kts | 170° |
| 2026-05-06 13:17 | 46.99884 | 15.44149 | 1119 ft | 1 kts | 170° |
| 2026-05-06 13:18 | 46.99866 | 15.44153 | 1119 ft | 3 kts | 170° |
| 2026-05-06 13:18 | 46.99837 | 15.44161 | 1119 ft | 5 kts | 170° |
| 2026-05-06 13:18 | 46.99810 | 15.44205 | 1119 ft | 8 kts | 103° |
| 2026-05-06 13:18 | 46.99820 | 15.44300 | 1119 ft | 11 kts | 78° |
| 2026-05-06 13:19 | 46.99835 | 15.44426 | 1119 ft | 11 kts | 80° |
| 2026-05-06 13:19 | 46.99843 | 15.44493 | 1119 ft | 4 kts | 98° |
| 2026-05-06 13:19 | 46.99818 | 15.44509 | 1119 ft | 4 kts | 179° |
| 2026-05-06 13:19 | 46.99793 | 15.44515 | 1119 ft | 1 kts | 169° |
| 2026-05-06 13:20 | 46.99787 | 15.44517 | 1119 ft | 0 kts | 169° |